<?xml version="1.0" encoding="UTF-8" standalone="no" ?>
<gpx xmlns="http://www.topografix.com/GPX/1/1" xmlns:xsi="http://www.w3.org/2001/XMLSchema-instance" xsi:schemaLocation="http://www.topografix.com/GPX/1/1 http://www.topografix.com/GPX/1/1/gpx.xsd" version="1.1" creator="VisuGPX - https://www.visugpx.com">
  <metadata>
    <name>balade entre lande et foret a vesly</name>
  </metadata>
  <trk>
    <name><![CDATA[balade entre lande et foret a vesly_1]]></name>
    <trkseg>
      <trkpt lat="49.22383" lon="-1.46166">
        <ele>24.8</ele>
        <time>2021-12-04T12:19:33Z</time>
      </trkpt>
      <trkpt lat="49.22382" lon="-1.46175">
        <ele>25.2</ele>
        <time>2021-12-04T12:19:41Z</time>
      </trkpt>
      <trkpt lat="49.22381" lon="-1.46183">
        <ele>25</ele>
        <time>2021-12-04T12:19:45Z</time>
      </trkpt>
      <trkpt lat="49.22382" lon="-1.46192">
        <ele>24.8</ele>
        <time>2021-12-04T12:19:49Z</time>
      </trkpt>
      <trkpt lat="49.22382" lon="-1.46201">
        <ele>24.6</ele>
        <time>2021-12-04T12:19:53Z</time>
      </trkpt>
      <trkpt lat="49.22383" lon="-1.4621">
        <ele>24.4</ele>
        <time>2021-12-04T12:19:57Z</time>
      </trkpt>
      <trkpt lat="49.22382" lon="-1.46217">
        <ele>24.2</ele>
        <time>2021-12-04T12:20:01Z</time>
      </trkpt>
      <trkpt lat="49.22383" lon="-1.46227">
        <ele>24.1</ele>
        <time>2021-12-04T12:20:05Z</time>
      </trkpt>
      <trkpt lat="49.22384" lon="-1.46237">
        <ele>24.1</ele>
        <time>2021-12-04T12:20:09Z</time>
      </trkpt>
      <trkpt lat="49.22384" lon="-1.46245">
        <ele>24.2</ele>
        <time>2021-12-04T12:20:12Z</time>
      </trkpt>
      <trkpt lat="49.22383" lon="-1.46254">
        <ele>24.3</ele>
        <time>2021-12-04T12:20:16Z</time>
      </trkpt>
      <trkpt lat="49.22382" lon="-1.46262">
        <ele>24.3</ele>
        <time>2021-12-04T12:20:20Z</time>
      </trkpt>
      <trkpt lat="49.22381" lon="-1.4627">
        <ele>24.3</ele>
        <time>2021-12-04T12:20:25Z</time>
      </trkpt>
      <trkpt lat="49.2238" lon="-1.46278">
        <ele>24.3</ele>
        <time>2021-12-04T12:20:29Z</time>
      </trkpt>
      <trkpt lat="49.22377" lon="-1.46285">
        <ele>24.2</ele>
        <time>2021-12-04T12:20:33Z</time>
      </trkpt>
      <trkpt lat="49.22374" lon="-1.46291">
        <ele>24.2</ele>
        <time>2021-12-04T12:20:36Z</time>
      </trkpt>
      <trkpt lat="49.22371" lon="-1.46298">
        <ele>24</ele>
        <time>2021-12-04T12:20:39Z</time>
      </trkpt>
      <trkpt lat="49.22368" lon="-1.46305">
        <ele>23.9</ele>
        <time>2021-12-04T12:20:43Z</time>
      </trkpt>
      <trkpt lat="49.22365" lon="-1.46312">
        <ele>23.9</ele>
        <time>2021-12-04T12:20:47Z</time>
      </trkpt>
      <trkpt lat="49.22362" lon="-1.46318">
        <ele>24</ele>
        <time>2021-12-04T12:20:50Z</time>
      </trkpt>
      <trkpt lat="49.22359" lon="-1.46326">
        <ele>24.1</ele>
        <time>2021-12-04T12:20:54Z</time>
      </trkpt>
      <trkpt lat="49.22356" lon="-1.46335">
        <ele>24</ele>
        <time>2021-12-04T12:20:59Z</time>
      </trkpt>
      <trkpt lat="49.22353" lon="-1.46342">
        <ele>24</ele>
        <time>2021-12-04T12:21:02Z</time>
      </trkpt>
      <trkpt lat="49.22349" lon="-1.46349">
        <ele>23.9</ele>
        <time>2021-12-04T12:21:06Z</time>
      </trkpt>
      <trkpt lat="49.22347" lon="-1.46355">
        <ele>24</ele>
        <time>2021-12-04T12:21:09Z</time>
      </trkpt>
      <trkpt lat="49.22342" lon="-1.46354">
        <ele>23.4</ele>
        <time>2021-12-04T12:21:30Z</time>
      </trkpt>
      <trkpt lat="49.22337" lon="-1.46373">
        <ele>24.6</ele>
        <time>2021-12-04T12:21:37Z</time>
      </trkpt>
      <trkpt lat="49.22333" lon="-1.46384">
        <ele>25.4</ele>
        <time>2021-12-04T12:21:40Z</time>
      </trkpt>
      <trkpt lat="49.22329" lon="-1.46394">
        <ele>26</ele>
        <time>2021-12-04T12:21:42Z</time>
      </trkpt>
      <trkpt lat="49.22326" lon="-1.46401">
        <ele>26</ele>
        <time>2021-12-04T12:21:44Z</time>
      </trkpt>
      <trkpt lat="49.22322" lon="-1.46405">
        <ele>25.6</ele>
        <time>2021-12-04T12:21:55Z</time>
      </trkpt>
      <trkpt lat="49.22319" lon="-1.46415">
        <ele>25.3</ele>
        <time>2021-12-04T12:21:59Z</time>
      </trkpt>
      <trkpt lat="49.22317" lon="-1.46421">
        <ele>25.2</ele>
        <time>2021-12-04T12:22:01Z</time>
      </trkpt>
      <trkpt lat="49.22314" lon="-1.46428">
        <ele>25</ele>
        <time>2021-12-04T12:22:05Z</time>
      </trkpt>
      <trkpt lat="49.2231" lon="-1.46433">
        <ele>25</ele>
        <time>2021-12-04T12:22:09Z</time>
      </trkpt>
      <trkpt lat="49.22308" lon="-1.4644">
        <ele>24.8</ele>
        <time>2021-12-04T12:22:13Z</time>
      </trkpt>
      <trkpt lat="49.22306" lon="-1.46447">
        <ele>24.5</ele>
        <time>2021-12-04T12:22:26Z</time>
      </trkpt>
      <trkpt lat="49.22307" lon="-1.46455">
        <ele>24.5</ele>
        <time>2021-12-04T12:22:33Z</time>
      </trkpt>
      <trkpt lat="49.22307" lon="-1.46462">
        <ele>24.4</ele>
        <time>2021-12-04T12:22:51Z</time>
      </trkpt>
      <trkpt lat="49.22306" lon="-1.46472">
        <ele>24.5</ele>
        <time>2021-12-04T12:22:54Z</time>
      </trkpt>
      <trkpt lat="49.22305" lon="-1.46479">
        <ele>24.5</ele>
        <time>2021-12-04T12:22:57Z</time>
      </trkpt>
      <trkpt lat="49.22305" lon="-1.46488">
        <ele>24.6</ele>
        <time>2021-12-04T12:23:01Z</time>
      </trkpt>
      <trkpt lat="49.22305" lon="-1.46498">
        <ele>24.7</ele>
        <time>2021-12-04T12:23:04Z</time>
      </trkpt>
      <trkpt lat="49.22306" lon="-1.46505">
        <ele>24.7</ele>
        <time>2021-12-04T12:23:08Z</time>
      </trkpt>
      <trkpt lat="49.22305" lon="-1.46515">
        <ele>24.8</ele>
        <time>2021-12-04T12:23:12Z</time>
      </trkpt>
      <trkpt lat="49.22305" lon="-1.46523">
        <ele>24.7</ele>
        <time>2021-12-04T12:23:16Z</time>
      </trkpt>
      <trkpt lat="49.22305" lon="-1.4653">
        <ele>24.5</ele>
        <time>2021-12-04T12:23:20Z</time>
      </trkpt>
      <trkpt lat="49.22305" lon="-1.46537">
        <ele>24.4</ele>
        <time>2021-12-04T12:23:24Z</time>
      </trkpt>
      <trkpt lat="49.22306" lon="-1.46547">
        <ele>24.3</ele>
        <time>2021-12-04T12:23:30Z</time>
      </trkpt>
      <trkpt lat="49.22309" lon="-1.46555">
        <ele>24.2</ele>
        <time>2021-12-04T12:23:34Z</time>
      </trkpt>
      <trkpt lat="49.22307" lon="-1.46563">
        <ele>24.4</ele>
        <time>2021-12-04T12:23:46Z</time>
      </trkpt>
      <trkpt lat="49.22307" lon="-1.46572">
        <ele>24.7</ele>
        <time>2021-12-04T12:23:49Z</time>
      </trkpt>
      <trkpt lat="49.22309" lon="-1.46581">
        <ele>24.8</ele>
        <time>2021-12-04T12:23:53Z</time>
      </trkpt>
      <trkpt lat="49.22309" lon="-1.46589">
        <ele>24.8</ele>
        <time>2021-12-04T12:23:57Z</time>
      </trkpt>
      <trkpt lat="49.22308" lon="-1.46598">
        <ele>24.7</ele>
        <time>2021-12-04T12:24:01Z</time>
      </trkpt>
      <trkpt lat="49.22309" lon="-1.46607">
        <ele>24.5</ele>
        <time>2021-12-04T12:24:05Z</time>
      </trkpt>
      <trkpt lat="49.22309" lon="-1.46615">
        <ele>24.5</ele>
        <time>2021-12-04T12:24:08Z</time>
      </trkpt>
      <trkpt lat="49.22309" lon="-1.46623">
        <ele>24.4</ele>
        <time>2021-12-04T12:24:13Z</time>
      </trkpt>
      <trkpt lat="49.2231" lon="-1.46631">
        <ele>24.3</ele>
        <time>2021-12-04T12:24:17Z</time>
      </trkpt>
      <trkpt lat="49.22311" lon="-1.4664">
        <ele>24.3</ele>
        <time>2021-12-04T12:24:20Z</time>
      </trkpt>
      <trkpt lat="49.22311" lon="-1.46647">
        <ele>24.3</ele>
        <time>2021-12-04T12:24:24Z</time>
      </trkpt>
      <trkpt lat="49.22311" lon="-1.46657">
        <ele>24.4</ele>
        <time>2021-12-04T12:24:28Z</time>
      </trkpt>
      <trkpt lat="49.22312" lon="-1.46664">
        <ele>24.5</ele>
        <time>2021-12-04T12:24:32Z</time>
      </trkpt>
      <trkpt lat="49.22314" lon="-1.46671">
        <ele>24.4</ele>
        <time>2021-12-04T12:24:36Z</time>
      </trkpt>
      <trkpt lat="49.22317" lon="-1.46679">
        <ele>24.7</ele>
        <time>2021-12-04T12:24:39Z</time>
      </trkpt>
      <trkpt lat="49.22319" lon="-1.46686">
        <ele>24.8</ele>
        <time>2021-12-04T12:24:44Z</time>
      </trkpt>
      <trkpt lat="49.22321" lon="-1.46694">
        <ele>23.4</ele>
        <time>2021-12-04T12:25:06Z</time>
      </trkpt>
      <trkpt lat="49.22324" lon="-1.467">
        <ele>23.2</ele>
        <time>2021-12-04T12:25:09Z</time>
      </trkpt>
      <trkpt lat="49.22324" lon="-1.46708">
        <ele>23.1</ele>
        <time>2021-12-04T12:25:12Z</time>
      </trkpt>
      <trkpt lat="49.22325" lon="-1.46715">
        <ele>23</ele>
        <time>2021-12-04T12:25:15Z</time>
      </trkpt>
      <trkpt lat="49.22326" lon="-1.46723">
        <ele>23</ele>
        <time>2021-12-04T12:25:18Z</time>
      </trkpt>
      <trkpt lat="49.22326" lon="-1.46731">
        <ele>23</ele>
        <time>2021-12-04T12:25:22Z</time>
      </trkpt>
      <trkpt lat="49.22325" lon="-1.4674">
        <ele>23.1</ele>
        <time>2021-12-04T12:25:29Z</time>
      </trkpt>
      <trkpt lat="49.22325" lon="-1.46747">
        <ele>23</ele>
        <time>2021-12-04T12:25:35Z</time>
      </trkpt>
      <trkpt lat="49.22326" lon="-1.46756">
        <ele>22.9</ele>
        <time>2021-12-04T12:25:41Z</time>
      </trkpt>
      <trkpt lat="49.22325" lon="-1.46763">
        <ele>22.9</ele>
        <time>2021-12-04T12:25:45Z</time>
      </trkpt>
      <trkpt lat="49.22326" lon="-1.4677">
        <ele>22.9</ele>
        <time>2021-12-04T12:25:49Z</time>
      </trkpt>
      <trkpt lat="49.22326" lon="-1.46777">
        <ele>23.1</ele>
        <time>2021-12-04T12:25:53Z</time>
      </trkpt>
      <trkpt lat="49.22327" lon="-1.46784">
        <ele>23.1</ele>
        <time>2021-12-04T12:25:56Z</time>
      </trkpt>
      <trkpt lat="49.22328" lon="-1.46791">
        <ele>23.2</ele>
        <time>2021-12-04T12:26:01Z</time>
      </trkpt>
      <trkpt lat="49.2233" lon="-1.46798">
        <ele>23.1</ele>
        <time>2021-12-04T12:26:05Z</time>
      </trkpt>
      <trkpt lat="49.22328" lon="-1.46808">
        <ele>23.3</ele>
        <time>2021-12-04T12:26:09Z</time>
      </trkpt>
      <trkpt lat="49.22325" lon="-1.46814">
        <ele>23.6</ele>
        <time>2021-12-04T12:26:12Z</time>
      </trkpt>
      <trkpt lat="49.22325" lon="-1.46823">
        <ele>23.9</ele>
        <time>2021-12-04T12:26:16Z</time>
      </trkpt>
      <trkpt lat="49.22326" lon="-1.4683">
        <ele>23.9</ele>
        <time>2021-12-04T12:26:20Z</time>
      </trkpt>
      <trkpt lat="49.22326" lon="-1.46837">
        <ele>23.9</ele>
        <time>2021-12-04T12:26:24Z</time>
      </trkpt>
      <trkpt lat="49.22327" lon="-1.46846">
        <ele>24</ele>
        <time>2021-12-04T12:26:29Z</time>
      </trkpt>
      <trkpt lat="49.22329" lon="-1.46855">
        <ele>24</ele>
        <time>2021-12-04T12:26:34Z</time>
      </trkpt>
      <trkpt lat="49.22332" lon="-1.46864">
        <ele>23.8</ele>
        <time>2021-12-04T12:26:39Z</time>
      </trkpt>
      <trkpt lat="49.22333" lon="-1.46872">
        <ele>23.9</ele>
        <time>2021-12-04T12:26:46Z</time>
      </trkpt>
      <trkpt lat="49.22334" lon="-1.4688">
        <ele>23.7</ele>
        <time>2021-12-04T12:26:50Z</time>
      </trkpt>
      <trkpt lat="49.22332" lon="-1.46889">
        <ele>23.7</ele>
        <time>2021-12-04T12:26:54Z</time>
      </trkpt>
      <trkpt lat="49.2233" lon="-1.46896">
        <ele>23.6</ele>
        <time>2021-12-04T12:26:58Z</time>
      </trkpt>
      <trkpt lat="49.22332" lon="-1.46904">
        <ele>23.3</ele>
        <time>2021-12-04T12:27:02Z</time>
      </trkpt>
      <trkpt lat="49.22332" lon="-1.46912">
        <ele>22.8</ele>
        <time>2021-12-04T12:27:07Z</time>
      </trkpt>
      <trkpt lat="49.22332" lon="-1.46919">
        <ele>22.8</ele>
        <time>2021-12-04T12:27:10Z</time>
      </trkpt>
      <trkpt lat="49.22333" lon="-1.46928">
        <ele>22.9</ele>
        <time>2021-12-04T12:27:14Z</time>
      </trkpt>
      <trkpt lat="49.22335" lon="-1.46935">
        <ele>23.4</ele>
        <time>2021-12-04T12:27:18Z</time>
      </trkpt>
      <trkpt lat="49.22335" lon="-1.46942">
        <ele>23.6</ele>
        <time>2021-12-04T12:27:21Z</time>
      </trkpt>
      <trkpt lat="49.22335" lon="-1.4695">
        <ele>23.7</ele>
        <time>2021-12-04T12:27:25Z</time>
      </trkpt>
      <trkpt lat="49.22336" lon="-1.46957">
        <ele>23.6</ele>
        <time>2021-12-04T12:27:29Z</time>
      </trkpt>
      <trkpt lat="49.22337" lon="-1.46964">
        <ele>23.8</ele>
        <time>2021-12-04T12:27:33Z</time>
      </trkpt>
      <trkpt lat="49.22339" lon="-1.4697">
        <ele>23.9</ele>
        <time>2021-12-04T12:27:36Z</time>
      </trkpt>
      <trkpt lat="49.22341" lon="-1.46978">
        <ele>24.2</ele>
        <time>2021-12-04T12:27:40Z</time>
      </trkpt>
      <trkpt lat="49.22341" lon="-1.46985">
        <ele>24.5</ele>
        <time>2021-12-04T12:27:44Z</time>
      </trkpt>
      <trkpt lat="49.22342" lon="-1.46993">
        <ele>24.6</ele>
        <time>2021-12-04T12:27:48Z</time>
      </trkpt>
      <trkpt lat="49.22341" lon="-1.47">
        <ele>24.6</ele>
        <time>2021-12-04T12:27:51Z</time>
      </trkpt>
      <trkpt lat="49.22341" lon="-1.47007">
        <ele>24.6</ele>
        <time>2021-12-04T12:27:55Z</time>
      </trkpt>
      <trkpt lat="49.22339" lon="-1.47014">
        <ele>24.6</ele>
        <time>2021-12-04T12:27:59Z</time>
      </trkpt>
      <trkpt lat="49.2234" lon="-1.47022">
        <ele>24.6</ele>
        <time>2021-12-04T12:28:14Z</time>
      </trkpt>
      <trkpt lat="49.22339" lon="-1.47031">
        <ele>24.6</ele>
        <time>2021-12-04T12:28:18Z</time>
      </trkpt>
      <trkpt lat="49.2234" lon="-1.47039">
        <ele>24.5</ele>
        <time>2021-12-04T12:28:22Z</time>
      </trkpt>
      <trkpt lat="49.2234" lon="-1.47049">
        <ele>24.5</ele>
        <time>2021-12-04T12:28:27Z</time>
      </trkpt>
      <trkpt lat="49.22338" lon="-1.47057">
        <ele>24.6</ele>
        <time>2021-12-04T12:28:31Z</time>
      </trkpt>
      <trkpt lat="49.22336" lon="-1.47064">
        <ele>24.6</ele>
        <time>2021-12-04T12:28:35Z</time>
      </trkpt>
      <trkpt lat="49.22335" lon="-1.47071">
        <ele>24.6</ele>
        <time>2021-12-04T12:28:39Z</time>
      </trkpt>
      <trkpt lat="49.22332" lon="-1.47079">
        <ele>24.7</ele>
        <time>2021-12-04T12:28:43Z</time>
      </trkpt>
      <trkpt lat="49.22331" lon="-1.47087">
        <ele>24.7</ele>
        <time>2021-12-04T12:28:47Z</time>
      </trkpt>
      <trkpt lat="49.22331" lon="-1.47096">
        <ele>24.7</ele>
        <time>2021-12-04T12:28:51Z</time>
      </trkpt>
      <trkpt lat="49.22331" lon="-1.47103">
        <ele>24.6</ele>
        <time>2021-12-04T12:28:54Z</time>
      </trkpt>
      <trkpt lat="49.22332" lon="-1.47111">
        <ele>24.4</ele>
        <time>2021-12-04T12:28:58Z</time>
      </trkpt>
      <trkpt lat="49.22334" lon="-1.47119">
        <ele>24</ele>
        <time>2021-12-04T12:29:11Z</time>
      </trkpt>
      <trkpt lat="49.22337" lon="-1.47125">
        <ele>24</ele>
        <time>2021-12-04T12:29:14Z</time>
      </trkpt>
      <trkpt lat="49.22342" lon="-1.47131">
        <ele>23.9</ele>
        <time>2021-12-04T12:29:18Z</time>
      </trkpt>
      <trkpt lat="49.22346" lon="-1.47136">
        <ele>23.9</ele>
        <time>2021-12-04T12:29:21Z</time>
      </trkpt>
      <trkpt lat="49.2235" lon="-1.47141">
        <ele>23.8</ele>
        <time>2021-12-04T12:29:25Z</time>
      </trkpt>
      <trkpt lat="49.22355" lon="-1.47145">
        <ele>23.7</ele>
        <time>2021-12-04T12:29:28Z</time>
      </trkpt>
      <trkpt lat="49.22359" lon="-1.47148">
        <ele>23.7</ele>
        <time>2021-12-04T12:29:31Z</time>
      </trkpt>
      <trkpt lat="49.22364" lon="-1.47151">
        <ele>23.7</ele>
        <time>2021-12-04T12:29:35Z</time>
      </trkpt>
      <trkpt lat="49.2237" lon="-1.47153">
        <ele>23.5</ele>
        <time>2021-12-04T12:29:39Z</time>
      </trkpt>
      <trkpt lat="49.22374" lon="-1.47157">
        <ele>23.3</ele>
        <time>2021-12-04T12:29:44Z</time>
      </trkpt>
      <trkpt lat="49.22379" lon="-1.47161">
        <ele>23.3</ele>
        <time>2021-12-04T12:29:48Z</time>
      </trkpt>
      <trkpt lat="49.22382" lon="-1.47165">
        <ele>23.6</ele>
        <time>2021-12-04T12:29:53Z</time>
      </trkpt>
      <trkpt lat="49.22386" lon="-1.4717">
        <ele>24.3</ele>
        <time>2021-12-04T12:29:57Z</time>
      </trkpt>
      <trkpt lat="49.2239" lon="-1.47175">
        <ele>24.8</ele>
        <time>2021-12-04T12:30:00Z</time>
      </trkpt>
      <trkpt lat="49.22393" lon="-1.47181">
        <ele>25.5</ele>
        <time>2021-12-04T12:30:04Z</time>
      </trkpt>
      <trkpt lat="49.22398" lon="-1.47183">
        <ele>25.8</ele>
        <time>2021-12-04T12:30:08Z</time>
      </trkpt>
      <trkpt lat="49.22402" lon="-1.47187">
        <ele>25.9</ele>
        <time>2021-12-04T12:30:11Z</time>
      </trkpt>
      <trkpt lat="49.22405" lon="-1.47193">
        <ele>25.9</ele>
        <time>2021-12-04T12:30:15Z</time>
      </trkpt>
      <trkpt lat="49.22408" lon="-1.47199">
        <ele>25.8</ele>
        <time>2021-12-04T12:30:19Z</time>
      </trkpt>
      <trkpt lat="49.22413" lon="-1.47203">
        <ele>25.8</ele>
        <time>2021-12-04T12:30:23Z</time>
      </trkpt>
      <trkpt lat="49.22418" lon="-1.47206">
        <ele>25.8</ele>
        <time>2021-12-04T12:30:26Z</time>
      </trkpt>
      <trkpt lat="49.22423" lon="-1.47211">
        <ele>25.8</ele>
        <time>2021-12-04T12:30:30Z</time>
      </trkpt>
      <trkpt lat="49.22429" lon="-1.47214">
        <ele>26</ele>
        <time>2021-12-04T12:30:34Z</time>
      </trkpt>
      <trkpt lat="49.22433" lon="-1.47218">
        <ele>25.8</ele>
        <time>2021-12-04T12:30:40Z</time>
      </trkpt>
      <trkpt lat="49.22439" lon="-1.47224">
        <ele>25.4</ele>
        <time>2021-12-04T12:30:50Z</time>
      </trkpt>
      <trkpt lat="49.22444" lon="-1.47227">
        <ele>25.4</ele>
        <time>2021-12-04T12:30:54Z</time>
      </trkpt>
      <trkpt lat="49.2245" lon="-1.47231">
        <ele>25.5</ele>
        <time>2021-12-04T12:30:57Z</time>
      </trkpt>
      <trkpt lat="49.22455" lon="-1.47235">
        <ele>25.7</ele>
        <time>2021-12-04T12:31:01Z</time>
      </trkpt>
      <trkpt lat="49.2246" lon="-1.47237">
        <ele>25.7</ele>
        <time>2021-12-04T12:31:05Z</time>
      </trkpt>
      <trkpt lat="49.22465" lon="-1.47237">
        <ele>25.6</ele>
        <time>2021-12-04T12:31:08Z</time>
      </trkpt>
      <trkpt lat="49.2247" lon="-1.47239">
        <ele>25.6</ele>
        <time>2021-12-04T12:31:13Z</time>
      </trkpt>
      <trkpt lat="49.22475" lon="-1.47242">
        <ele>25.6</ele>
        <time>2021-12-04T12:31:19Z</time>
      </trkpt>
      <trkpt lat="49.22481" lon="-1.47244">
        <ele>25.8</ele>
        <time>2021-12-04T12:31:22Z</time>
      </trkpt>
      <trkpt lat="49.22486" lon="-1.47247">
        <ele>26.1</ele>
        <time>2021-12-04T12:31:26Z</time>
      </trkpt>
      <trkpt lat="49.2249" lon="-1.47253">
        <ele>26.5</ele>
        <time>2021-12-04T12:31:30Z</time>
      </trkpt>
      <trkpt lat="49.22494" lon="-1.47259">
        <ele>26.7</ele>
        <time>2021-12-04T12:31:34Z</time>
      </trkpt>
      <trkpt lat="49.22497" lon="-1.47266">
        <ele>27</ele>
        <time>2021-12-04T12:31:38Z</time>
      </trkpt>
      <trkpt lat="49.22501" lon="-1.47272">
        <ele>27.3</ele>
        <time>2021-12-04T12:31:42Z</time>
      </trkpt>
      <trkpt lat="49.22505" lon="-1.47277">
        <ele>27.6</ele>
        <time>2021-12-04T12:31:46Z</time>
      </trkpt>
      <trkpt lat="49.22509" lon="-1.47282">
        <ele>27.8</ele>
        <time>2021-12-04T12:31:50Z</time>
      </trkpt>
      <trkpt lat="49.22512" lon="-1.47289">
        <ele>27.9</ele>
        <time>2021-12-04T12:31:54Z</time>
      </trkpt>
      <trkpt lat="49.22514" lon="-1.47295">
        <ele>28</ele>
        <time>2021-12-04T12:31:57Z</time>
      </trkpt>
      <trkpt lat="49.22517" lon="-1.47301">
        <ele>28.1</ele>
        <time>2021-12-04T12:32:01Z</time>
      </trkpt>
      <trkpt lat="49.2252" lon="-1.47309">
        <ele>28.2</ele>
        <time>2021-12-04T12:32:05Z</time>
      </trkpt>
      <trkpt lat="49.22522" lon="-1.47316">
        <ele>28.2</ele>
        <time>2021-12-04T12:32:08Z</time>
      </trkpt>
      <trkpt lat="49.22525" lon="-1.47321">
        <ele>28.1</ele>
        <time>2021-12-04T12:32:12Z</time>
      </trkpt>
      <trkpt lat="49.2253" lon="-1.47327">
        <ele>28</ele>
        <time>2021-12-04T12:32:16Z</time>
      </trkpt>
      <trkpt lat="49.22534" lon="-1.47331">
        <ele>28.1</ele>
        <time>2021-12-04T12:32:20Z</time>
      </trkpt>
      <trkpt lat="49.22539" lon="-1.47332">
        <ele>28</ele>
        <time>2021-12-04T12:32:23Z</time>
      </trkpt>
      <trkpt lat="49.22543" lon="-1.47324">
        <ele>27.9</ele>
        <time>2021-12-04T12:32:27Z</time>
      </trkpt>
      <trkpt lat="49.22546" lon="-1.47316">
        <ele>27.6</ele>
        <time>2021-12-04T12:32:31Z</time>
      </trkpt>
      <trkpt lat="49.22547" lon="-1.47308">
        <ele>27.4</ele>
        <time>2021-12-04T12:32:35Z</time>
      </trkpt>
      <trkpt lat="49.22549" lon="-1.47302">
        <ele>27.2</ele>
        <time>2021-12-04T12:32:38Z</time>
      </trkpt>
      <trkpt lat="49.22552" lon="-1.47296">
        <ele>27.1</ele>
        <time>2021-12-04T12:32:42Z</time>
      </trkpt>
      <trkpt lat="49.22557" lon="-1.47294">
        <ele>27.1</ele>
        <time>2021-12-04T12:32:46Z</time>
      </trkpt>
      <trkpt lat="49.22561" lon="-1.47292">
        <ele>27.2</ele>
        <time>2021-12-04T12:32:48Z</time>
      </trkpt>
      <trkpt lat="49.22567" lon="-1.47295">
        <ele>27.4</ele>
        <time>2021-12-04T12:32:53Z</time>
      </trkpt>
      <trkpt lat="49.22571" lon="-1.47301">
        <ele>27.6</ele>
        <time>2021-12-04T12:32:56Z</time>
      </trkpt>
      <trkpt lat="49.22573" lon="-1.4731">
        <ele>27.6</ele>
        <time>2021-12-04T12:33:00Z</time>
      </trkpt>
      <trkpt lat="49.22574" lon="-1.47319">
        <ele>27.6</ele>
        <time>2021-12-04T12:33:04Z</time>
      </trkpt>
      <trkpt lat="49.22574" lon="-1.47328">
        <ele>27.5</ele>
        <time>2021-12-04T12:33:08Z</time>
      </trkpt>
      <trkpt lat="49.22572" lon="-1.47335">
        <ele>27.3</ele>
        <time>2021-12-04T12:33:12Z</time>
      </trkpt>
      <trkpt lat="49.22572" lon="-1.47342">
        <ele>27.2</ele>
        <time>2021-12-04T12:33:15Z</time>
      </trkpt>
      <trkpt lat="49.22571" lon="-1.4735">
        <ele>27.1</ele>
        <time>2021-12-04T12:33:19Z</time>
      </trkpt>
      <trkpt lat="49.2257" lon="-1.47358">
        <ele>27</ele>
        <time>2021-12-04T12:33:22Z</time>
      </trkpt>
      <trkpt lat="49.22569" lon="-1.47367">
        <ele>26.8</ele>
        <time>2021-12-04T12:33:27Z</time>
      </trkpt>
      <trkpt lat="49.22569" lon="-1.47375">
        <ele>26.8</ele>
        <time>2021-12-04T12:33:31Z</time>
      </trkpt>
      <trkpt lat="49.22568" lon="-1.47383">
        <ele>26.8</ele>
        <time>2021-12-04T12:33:35Z</time>
      </trkpt>
      <trkpt lat="49.22568" lon="-1.4739">
        <ele>26.9</ele>
        <time>2021-12-04T12:33:38Z</time>
      </trkpt>
      <trkpt lat="49.22568" lon="-1.47397">
        <ele>27</ele>
        <time>2021-12-04T12:33:41Z</time>
      </trkpt>
      <trkpt lat="49.22568" lon="-1.47406">
        <ele>27</ele>
        <time>2021-12-04T12:33:46Z</time>
      </trkpt>
      <trkpt lat="49.22568" lon="-1.47414">
        <ele>26.9</ele>
        <time>2021-12-04T12:33:49Z</time>
      </trkpt>
      <trkpt lat="49.22568" lon="-1.47422">
        <ele>26.8</ele>
        <time>2021-12-04T12:33:53Z</time>
      </trkpt>
      <trkpt lat="49.22568" lon="-1.47431">
        <ele>26.7</ele>
        <time>2021-12-04T12:33:57Z</time>
      </trkpt>
      <trkpt lat="49.22568" lon="-1.47438">
        <ele>26.5</ele>
        <time>2021-12-04T12:34:00Z</time>
      </trkpt>
      <trkpt lat="49.22568" lon="-1.47446">
        <ele>26.3</ele>
        <time>2021-12-04T12:34:04Z</time>
      </trkpt>
      <trkpt lat="49.22569" lon="-1.47456">
        <ele>26</ele>
        <time>2021-12-04T12:34:09Z</time>
      </trkpt>
      <trkpt lat="49.2257" lon="-1.47466">
        <ele>25.9</ele>
        <time>2021-12-04T12:34:13Z</time>
      </trkpt>
      <trkpt lat="49.22572" lon="-1.47473">
        <ele>25.8</ele>
        <time>2021-12-04T12:34:18Z</time>
      </trkpt>
      <trkpt lat="49.22574" lon="-1.4748">
        <ele>25.6</ele>
        <time>2021-12-04T12:34:22Z</time>
      </trkpt>
      <trkpt lat="49.22575" lon="-1.47487">
        <ele>25.8</ele>
        <time>2021-12-04T12:34:26Z</time>
      </trkpt>
      <trkpt lat="49.22574" lon="-1.47495">
        <ele>26.2</ele>
        <time>2021-12-04T12:34:30Z</time>
      </trkpt>
      <trkpt lat="49.22568" lon="-1.475">
        <ele>26.8</ele>
        <time>2021-12-04T12:34:35Z</time>
      </trkpt>
      <trkpt lat="49.22565" lon="-1.47506">
        <ele>27.4</ele>
        <time>2021-12-04T12:34:41Z</time>
      </trkpt>
      <trkpt lat="49.22562" lon="-1.47511">
        <ele>27.5</ele>
        <time>2021-12-04T12:34:46Z</time>
      </trkpt>
      <trkpt lat="49.22557" lon="-1.47516">
        <ele>27.5</ele>
        <time>2021-12-04T12:34:51Z</time>
      </trkpt>
      <trkpt lat="49.22553" lon="-1.4752">
        <ele>28.2</ele>
        <time>2021-12-04T12:35:11Z</time>
      </trkpt>
      <trkpt lat="49.22547" lon="-1.47523">
        <ele>28.3</ele>
        <time>2021-12-04T12:35:14Z</time>
      </trkpt>
      <trkpt lat="49.22542" lon="-1.47526">
        <ele>28.3</ele>
        <time>2021-12-04T12:35:17Z</time>
      </trkpt>
      <trkpt lat="49.22537" lon="-1.47531">
        <ele>28.2</ele>
        <time>2021-12-04T12:35:21Z</time>
      </trkpt>
      <trkpt lat="49.22532" lon="-1.47534">
        <ele>28.1</ele>
        <time>2021-12-04T12:35:25Z</time>
      </trkpt>
      <trkpt lat="49.22527" lon="-1.47539">
        <ele>28</ele>
        <time>2021-12-04T12:35:28Z</time>
      </trkpt>
      <trkpt lat="49.22523" lon="-1.47544">
        <ele>27.9</ele>
        <time>2021-12-04T12:35:32Z</time>
      </trkpt>
      <trkpt lat="49.22519" lon="-1.47551">
        <ele>27.8</ele>
        <time>2021-12-04T12:35:36Z</time>
      </trkpt>
      <trkpt lat="49.22516" lon="-1.47557">
        <ele>27.6</ele>
        <time>2021-12-04T12:35:40Z</time>
      </trkpt>
      <trkpt lat="49.22514" lon="-1.47564">
        <ele>27.4</ele>
        <time>2021-12-04T12:35:43Z</time>
      </trkpt>
      <trkpt lat="49.22511" lon="-1.47569">
        <ele>27.3</ele>
        <time>2021-12-04T12:35:45Z</time>
      </trkpt>
      <trkpt lat="49.22506" lon="-1.47574">
        <ele>27.2</ele>
        <time>2021-12-04T12:35:50Z</time>
      </trkpt>
      <trkpt lat="49.22501" lon="-1.47578">
        <ele>27.1</ele>
        <time>2021-12-04T12:35:54Z</time>
      </trkpt>
      <trkpt lat="49.22497" lon="-1.47583">
        <ele>27</ele>
        <time>2021-12-04T12:35:57Z</time>
      </trkpt>
      <trkpt lat="49.22492" lon="-1.47588">
        <ele>26.7</ele>
        <time>2021-12-04T12:36:03Z</time>
      </trkpt>
      <trkpt lat="49.22488" lon="-1.47592">
        <ele>26.4</ele>
        <time>2021-12-04T12:36:06Z</time>
      </trkpt>
      <trkpt lat="49.22484" lon="-1.47598">
        <ele>26.3</ele>
        <time>2021-12-04T12:36:10Z</time>
      </trkpt>
      <trkpt lat="49.22479" lon="-1.47605">
        <ele>25.9</ele>
        <time>2021-12-04T12:36:15Z</time>
      </trkpt>
      <trkpt lat="49.22476" lon="-1.47613">
        <ele>26</ele>
        <time>2021-12-04T12:36:38Z</time>
      </trkpt>
      <trkpt lat="49.2247" lon="-1.47617">
        <ele>25.8</ele>
        <time>2021-12-04T12:36:42Z</time>
      </trkpt>
      <trkpt lat="49.22465" lon="-1.47622">
        <ele>25.7</ele>
        <time>2021-12-04T12:36:45Z</time>
      </trkpt>
      <trkpt lat="49.2246" lon="-1.47627">
        <ele>25.7</ele>
        <time>2021-12-04T12:36:48Z</time>
      </trkpt>
      <trkpt lat="49.22457" lon="-1.47633">
        <ele>25.6</ele>
        <time>2021-12-04T12:36:53Z</time>
      </trkpt>
      <trkpt lat="49.22454" lon="-1.47639">
        <ele>25.6</ele>
        <time>2021-12-04T12:36:57Z</time>
      </trkpt>
      <trkpt lat="49.22452" lon="-1.47646">
        <ele>25.4</ele>
        <time>2021-12-04T12:37:06Z</time>
      </trkpt>
      <trkpt lat="49.22453" lon="-1.47655">
        <ele>25.3</ele>
        <time>2021-12-04T12:37:10Z</time>
      </trkpt>
      <trkpt lat="49.22454" lon="-1.47663">
        <ele>25.3</ele>
        <time>2021-12-04T12:37:14Z</time>
      </trkpt>
      <trkpt lat="49.22456" lon="-1.47671">
        <ele>25.5</ele>
        <time>2021-12-04T12:37:18Z</time>
      </trkpt>
      <trkpt lat="49.2246" lon="-1.47678">
        <ele>25.3</ele>
        <time>2021-12-04T12:37:23Z</time>
      </trkpt>
      <trkpt lat="49.22462" lon="-1.47685">
        <ele>24.8</ele>
        <time>2021-12-04T12:37:26Z</time>
      </trkpt>
      <trkpt lat="49.22461" lon="-1.47693">
        <ele>24.5</ele>
        <time>2021-12-04T12:37:30Z</time>
      </trkpt>
      <trkpt lat="49.2246" lon="-1.477">
        <ele>24.4</ele>
        <time>2021-12-04T12:37:34Z</time>
      </trkpt>
      <trkpt lat="49.22458" lon="-1.47708">
        <ele>23.9</ele>
        <time>2021-12-04T12:37:40Z</time>
      </trkpt>
      <trkpt lat="49.2246" lon="-1.47714">
        <ele>23.7</ele>
        <time>2021-12-04T12:37:42Z</time>
      </trkpt>
      <trkpt lat="49.2246" lon="-1.47723">
        <ele>23.5</ele>
        <time>2021-12-04T12:37:48Z</time>
      </trkpt>
      <trkpt lat="49.22459" lon="-1.47734">
        <ele>23.4</ele>
        <time>2021-12-04T12:37:54Z</time>
      </trkpt>
      <trkpt lat="49.22458" lon="-1.47743">
        <ele>23.3</ele>
        <time>2021-12-04T12:38:00Z</time>
      </trkpt>
      <trkpt lat="49.22455" lon="-1.47749">
        <ele>20.9</ele>
        <time>2021-12-04T12:38:20Z</time>
      </trkpt>
      <trkpt lat="49.22456" lon="-1.47758">
        <ele>20.7</ele>
        <time>2021-12-04T12:38:26Z</time>
      </trkpt>
      <trkpt lat="49.22456" lon="-1.47765">
        <ele>21.7</ele>
        <time>2021-12-04T12:38:39Z</time>
      </trkpt>
      <trkpt lat="49.22456" lon="-1.47775">
        <ele>22</ele>
        <time>2021-12-04T12:39:00Z</time>
      </trkpt>
      <trkpt lat="49.22456" lon="-1.47783">
        <ele>22</ele>
        <time>2021-12-04T12:39:05Z</time>
      </trkpt>
      <trkpt lat="49.22456" lon="-1.47793">
        <ele>22</ele>
        <time>2021-12-04T12:39:11Z</time>
      </trkpt>
      <trkpt lat="49.22456" lon="-1.47801">
        <ele>22.1</ele>
        <time>2021-12-04T12:39:14Z</time>
      </trkpt>
      <trkpt lat="49.22455" lon="-1.47809">
        <ele>21.9</ele>
        <time>2021-12-04T12:39:18Z</time>
      </trkpt>
      <trkpt lat="49.22455" lon="-1.47816">
        <ele>21.5</ele>
        <time>2021-12-04T12:39:22Z</time>
      </trkpt>
      <trkpt lat="49.22455" lon="-1.47824">
        <ele>20.8</ele>
        <time>2021-12-04T12:39:26Z</time>
      </trkpt>
      <trkpt lat="49.22453" lon="-1.47831">
        <ele>20.5</ele>
        <time>2021-12-04T12:39:30Z</time>
      </trkpt>
      <trkpt lat="49.22454" lon="-1.47838">
        <ele>20.4</ele>
        <time>2021-12-04T12:39:34Z</time>
      </trkpt>
      <trkpt lat="49.22454" lon="-1.47845">
        <ele>20.4</ele>
        <time>2021-12-04T12:39:38Z</time>
      </trkpt>
      <trkpt lat="49.22453" lon="-1.47853">
        <ele>20.4</ele>
        <time>2021-12-04T12:39:42Z</time>
      </trkpt>
      <trkpt lat="49.22453" lon="-1.47861">
        <ele>20.4</ele>
        <time>2021-12-04T12:39:46Z</time>
      </trkpt>
      <trkpt lat="49.22453" lon="-1.47868">
        <ele>20.4</ele>
        <time>2021-12-04T12:39:50Z</time>
      </trkpt>
      <trkpt lat="49.22452" lon="-1.47877">
        <ele>20.2</ele>
        <time>2021-12-04T12:39:54Z</time>
      </trkpt>
      <trkpt lat="49.22449" lon="-1.47883">
        <ele>20.2</ele>
        <time>2021-12-04T12:39:58Z</time>
      </trkpt>
      <trkpt lat="49.22452" lon="-1.47891">
        <ele>20.3</ele>
        <time>2021-12-04T12:40:14Z</time>
      </trkpt>
      <trkpt lat="49.22452" lon="-1.47898">
        <ele>20.3</ele>
        <time>2021-12-04T12:40:17Z</time>
      </trkpt>
      <trkpt lat="49.22455" lon="-1.47907">
        <ele>20</ele>
        <time>2021-12-04T12:40:20Z</time>
      </trkpt>
      <trkpt lat="49.22458" lon="-1.47924">
        <ele>19.3</ele>
        <time>2021-12-04T12:40:27Z</time>
      </trkpt>
      <trkpt lat="49.22458" lon="-1.47934">
        <ele>17.9</ele>
        <time>2021-12-04T12:40:39Z</time>
      </trkpt>
      <trkpt lat="49.22459" lon="-1.47942">
        <ele>17.5</ele>
        <time>2021-12-04T12:40:42Z</time>
      </trkpt>
      <trkpt lat="49.2246" lon="-1.4795">
        <ele>17.1</ele>
        <time>2021-12-04T12:40:45Z</time>
      </trkpt>
      <trkpt lat="49.22462" lon="-1.47975">
        <ele>16.1</ele>
        <time>2021-12-04T12:40:55Z</time>
      </trkpt>
      <trkpt lat="49.22462" lon="-1.47982">
        <ele>16.2</ele>
        <time>2021-12-04T12:40:58Z</time>
      </trkpt>
      <trkpt lat="49.22463" lon="-1.4799">
        <ele>16.9</ele>
        <time>2021-12-04T12:41:02Z</time>
      </trkpt>
      <trkpt lat="49.22463" lon="-1.47998">
        <ele>17.7</ele>
        <time>2021-12-04T12:41:06Z</time>
      </trkpt>
      <trkpt lat="49.22463" lon="-1.48005">
        <ele>17.8</ele>
        <time>2021-12-04T12:41:10Z</time>
      </trkpt>
      <trkpt lat="49.22461" lon="-1.48014">
        <ele>17.3</ele>
        <time>2021-12-04T12:41:15Z</time>
      </trkpt>
      <trkpt lat="49.22461" lon="-1.4802">
        <ele>16.9</ele>
        <time>2021-12-04T12:41:18Z</time>
      </trkpt>
      <trkpt lat="49.22462" lon="-1.48027">
        <ele>16.2</ele>
        <time>2021-12-04T12:41:22Z</time>
      </trkpt>
      <trkpt lat="49.22463" lon="-1.48035">
        <ele>15.7</ele>
        <time>2021-12-04T12:41:25Z</time>
      </trkpt>
      <trkpt lat="49.22466" lon="-1.48045">
        <ele>14.6</ele>
        <time>2021-12-04T12:41:43Z</time>
      </trkpt>
      <trkpt lat="49.22468" lon="-1.48054">
        <ele>14.4</ele>
        <time>2021-12-04T12:41:47Z</time>
      </trkpt>
      <trkpt lat="49.22468" lon="-1.48063">
        <ele>14.2</ele>
        <time>2021-12-04T12:41:50Z</time>
      </trkpt>
      <trkpt lat="49.22469" lon="-1.48072">
        <ele>13.9</ele>
        <time>2021-12-04T12:41:54Z</time>
      </trkpt>
      <trkpt lat="49.2247" lon="-1.48079">
        <ele>13.6</ele>
        <time>2021-12-04T12:41:57Z</time>
      </trkpt>
      <trkpt lat="49.22471" lon="-1.48087">
        <ele>13.1</ele>
        <time>2021-12-04T12:42:07Z</time>
      </trkpt>
      <trkpt lat="49.22472" lon="-1.48095">
        <ele>13.1</ele>
        <time>2021-12-04T12:42:11Z</time>
      </trkpt>
      <trkpt lat="49.22472" lon="-1.48103">
        <ele>13.1</ele>
        <time>2021-12-04T12:42:15Z</time>
      </trkpt>
      <trkpt lat="49.22472" lon="-1.48111">
        <ele>13.3</ele>
        <time>2021-12-04T12:42:20Z</time>
      </trkpt>
      <trkpt lat="49.22471" lon="-1.48118">
        <ele>13.7</ele>
        <time>2021-12-04T12:42:27Z</time>
      </trkpt>
      <trkpt lat="49.22472" lon="-1.48126">
        <ele>14.1</ele>
        <time>2021-12-04T12:42:32Z</time>
      </trkpt>
      <trkpt lat="49.22474" lon="-1.48132">
        <ele>15.6</ele>
        <time>2021-12-04T12:42:46Z</time>
      </trkpt>
      <trkpt lat="49.22475" lon="-1.48139">
        <ele>16.5</ele>
        <time>2021-12-04T12:42:56Z</time>
      </trkpt>
      <trkpt lat="49.22478" lon="-1.48146">
        <ele>16.5</ele>
        <time>2021-12-04T12:42:58Z</time>
      </trkpt>
      <trkpt lat="49.2248" lon="-1.48155">
        <ele>16.6</ele>
        <time>2021-12-04T12:43:02Z</time>
      </trkpt>
      <trkpt lat="49.22481" lon="-1.48165">
        <ele>16.6</ele>
        <time>2021-12-04T12:43:05Z</time>
      </trkpt>
      <trkpt lat="49.2248" lon="-1.48158">
        <ele>17.5</ele>
        <time>2021-12-04T12:43:49Z</time>
      </trkpt>
      <trkpt lat="49.22479" lon="-1.48149">
        <ele>17.8</ele>
        <time>2021-12-04T12:44:10Z</time>
      </trkpt>
      <trkpt lat="49.22479" lon="-1.48139">
        <ele>17.5</ele>
        <time>2021-12-04T12:44:14Z</time>
      </trkpt>
      <trkpt lat="49.22478" lon="-1.48131">
        <ele>17.3</ele>
        <time>2021-12-04T12:44:17Z</time>
      </trkpt>
      <trkpt lat="49.22475" lon="-1.4812">
        <ele>17.2</ele>
        <time>2021-12-04T12:44:20Z</time>
      </trkpt>
      <trkpt lat="49.22474" lon="-1.4811">
        <ele>17</ele>
        <time>2021-12-04T12:44:23Z</time>
      </trkpt>
      <trkpt lat="49.22473" lon="-1.481">
        <ele>16.9</ele>
        <time>2021-12-04T12:44:26Z</time>
      </trkpt>
      <trkpt lat="49.22472" lon="-1.48094">
        <ele>17.1</ele>
        <time>2021-12-04T12:44:29Z</time>
      </trkpt>
      <trkpt lat="49.2247" lon="-1.48086">
        <ele>17.1</ele>
        <time>2021-12-04T12:44:32Z</time>
      </trkpt>
      <trkpt lat="49.22468" lon="-1.48079">
        <ele>17.1</ele>
        <time>2021-12-04T12:44:35Z</time>
      </trkpt>
      <trkpt lat="49.22469" lon="-1.4807">
        <ele>17.1</ele>
        <time>2021-12-04T12:44:38Z</time>
      </trkpt>
      <trkpt lat="49.22467" lon="-1.48063">
        <ele>16.7</ele>
        <time>2021-12-04T12:44:43Z</time>
      </trkpt>
      <trkpt lat="49.22466" lon="-1.48055">
        <ele>16.4</ele>
        <time>2021-12-04T12:44:47Z</time>
      </trkpt>
      <trkpt lat="49.22464" lon="-1.48047">
        <ele>16.2</ele>
        <time>2021-12-04T12:44:51Z</time>
      </trkpt>
      <trkpt lat="49.22462" lon="-1.48037">
        <ele>16</ele>
        <time>2021-12-04T12:44:56Z</time>
      </trkpt>
      <trkpt lat="49.22461" lon="-1.48029">
        <ele>16.2</ele>
        <time>2021-12-04T12:45:00Z</time>
      </trkpt>
      <trkpt lat="49.2246" lon="-1.48022">
        <ele>16.4</ele>
        <time>2021-12-04T12:45:04Z</time>
      </trkpt>
      <trkpt lat="49.22462" lon="-1.48016">
        <ele>17</ele>
        <time>2021-12-04T12:45:19Z</time>
      </trkpt>
      <trkpt lat="49.22461" lon="-1.48008">
        <ele>17.2</ele>
        <time>2021-12-04T12:45:24Z</time>
      </trkpt>
      <trkpt lat="49.22461" lon="-1.47999">
        <ele>17.3</ele>
        <time>2021-12-04T12:45:28Z</time>
      </trkpt>
      <trkpt lat="49.22461" lon="-1.4799">
        <ele>17.5</ele>
        <time>2021-12-04T12:45:32Z</time>
      </trkpt>
      <trkpt lat="49.2246" lon="-1.47983">
        <ele>17.6</ele>
        <time>2021-12-04T12:45:35Z</time>
      </trkpt>
      <trkpt lat="49.2246" lon="-1.47973">
        <ele>17.8</ele>
        <time>2021-12-04T12:45:39Z</time>
      </trkpt>
      <trkpt lat="49.2246" lon="-1.47963">
        <ele>18</ele>
        <time>2021-12-04T12:45:51Z</time>
      </trkpt>
      <trkpt lat="49.22458" lon="-1.47955">
        <ele>18.2</ele>
        <time>2021-12-04T12:45:55Z</time>
      </trkpt>
      <trkpt lat="49.22456" lon="-1.47947">
        <ele>18.2</ele>
        <time>2021-12-04T12:45:58Z</time>
      </trkpt>
      <trkpt lat="49.22455" lon="-1.47938">
        <ele>18.1</ele>
        <time>2021-12-04T12:46:02Z</time>
      </trkpt>
      <trkpt lat="49.22454" lon="-1.47929">
        <ele>18.1</ele>
        <time>2021-12-04T12:46:06Z</time>
      </trkpt>
      <trkpt lat="49.22453" lon="-1.47922">
        <ele>18.3</ele>
        <time>2021-12-04T12:46:09Z</time>
      </trkpt>
      <trkpt lat="49.22454" lon="-1.47915">
        <ele>18.7</ele>
        <time>2021-12-04T12:46:12Z</time>
      </trkpt>
      <trkpt lat="49.22455" lon="-1.47906">
        <ele>19.2</ele>
        <time>2021-12-04T12:46:16Z</time>
      </trkpt>
      <trkpt lat="49.22454" lon="-1.47898">
        <ele>19.7</ele>
        <time>2021-12-04T12:46:20Z</time>
      </trkpt>
      <trkpt lat="49.22452" lon="-1.47892">
        <ele>19.8</ele>
        <time>2021-12-04T12:46:24Z</time>
      </trkpt>
      <trkpt lat="49.22452" lon="-1.47884">
        <ele>19.5</ele>
        <time>2021-12-04T12:46:28Z</time>
      </trkpt>
      <trkpt lat="49.22454" lon="-1.47878">
        <ele>19.3</ele>
        <time>2021-12-04T12:46:43Z</time>
      </trkpt>
      <trkpt lat="49.22454" lon="-1.4787">
        <ele>19.7</ele>
        <time>2021-12-04T12:46:50Z</time>
      </trkpt>
      <trkpt lat="49.22453" lon="-1.4788">
        <ele>19.5</ele>
        <time>2021-12-04T12:47:09Z</time>
      </trkpt>
      <trkpt lat="49.22454" lon="-1.4789">
        <ele>19.3</ele>
        <time>2021-12-04T12:47:12Z</time>
      </trkpt>
      <trkpt lat="49.22455" lon="-1.47898">
        <ele>18.9</ele>
        <time>2021-12-04T12:47:14Z</time>
      </trkpt>
      <trkpt lat="49.22456" lon="-1.47906">
        <ele>18.4</ele>
        <time>2021-12-04T12:47:16Z</time>
      </trkpt>
      <trkpt lat="49.22456" lon="-1.47914">
        <ele>17.6</ele>
        <time>2021-12-04T12:47:20Z</time>
      </trkpt>
      <trkpt lat="49.22457" lon="-1.47922">
        <ele>16.7</ele>
        <time>2021-12-04T12:47:23Z</time>
      </trkpt>
      <trkpt lat="49.22456" lon="-1.4793">
        <ele>16</ele>
        <time>2021-12-04T12:47:27Z</time>
      </trkpt>
      <trkpt lat="49.22456" lon="-1.47937">
        <ele>15.9</ele>
        <time>2021-12-04T12:47:30Z</time>
      </trkpt>
      <trkpt lat="49.22457" lon="-1.47946">
        <ele>15.8</ele>
        <time>2021-12-04T12:47:34Z</time>
      </trkpt>
      <trkpt lat="49.22456" lon="-1.47955">
        <ele>15.5</ele>
        <time>2021-12-04T12:47:39Z</time>
      </trkpt>
      <trkpt lat="49.22458" lon="-1.47963">
        <ele>15.3</ele>
        <time>2021-12-04T12:47:44Z</time>
      </trkpt>
      <trkpt lat="49.2246" lon="-1.4797">
        <ele>15.4</ele>
        <time>2021-12-04T12:47:48Z</time>
      </trkpt>
      <trkpt lat="49.2246" lon="-1.47977">
        <ele>15.4</ele>
        <time>2021-12-04T12:47:53Z</time>
      </trkpt>
      <trkpt lat="49.22461" lon="-1.47984">
        <ele>15.3</ele>
        <time>2021-12-04T12:47:56Z</time>
      </trkpt>
      <trkpt lat="49.2246" lon="-1.47992">
        <ele>15.3</ele>
        <time>2021-12-04T12:48:00Z</time>
      </trkpt>
      <trkpt lat="49.2246" lon="-1.48001">
        <ele>15.2</ele>
        <time>2021-12-04T12:48:05Z</time>
      </trkpt>
      <trkpt lat="49.2246" lon="-1.48009">
        <ele>15</ele>
        <time>2021-12-04T12:48:09Z</time>
      </trkpt>
      <trkpt lat="49.22461" lon="-1.48018">
        <ele>14.8</ele>
        <time>2021-12-04T12:48:13Z</time>
      </trkpt>
      <trkpt lat="49.22463" lon="-1.48028">
        <ele>14.7</ele>
        <time>2021-12-04T12:48:17Z</time>
      </trkpt>
      <trkpt lat="49.22463" lon="-1.48035">
        <ele>14.5</ele>
        <time>2021-12-04T12:48:20Z</time>
      </trkpt>
      <trkpt lat="49.22464" lon="-1.48042">
        <ele>14.6</ele>
        <time>2021-12-04T12:48:25Z</time>
      </trkpt>
      <trkpt lat="49.22464" lon="-1.48049">
        <ele>15</ele>
        <time>2021-12-04T12:48:30Z</time>
      </trkpt>
      <trkpt lat="49.22465" lon="-1.48056">
        <ele>15.2</ele>
        <time>2021-12-04T12:48:34Z</time>
      </trkpt>
      <trkpt lat="49.22467" lon="-1.48064">
        <ele>15.4</ele>
        <time>2021-12-04T12:48:38Z</time>
      </trkpt>
      <trkpt lat="49.22468" lon="-1.48072">
        <ele>15.1</ele>
        <time>2021-12-04T12:48:41Z</time>
      </trkpt>
      <trkpt lat="49.22469" lon="-1.48079">
        <ele>14.8</ele>
        <time>2021-12-04T12:48:47Z</time>
      </trkpt>
      <trkpt lat="49.2247" lon="-1.48087">
        <ele>14.7</ele>
        <time>2021-12-04T12:48:52Z</time>
      </trkpt>
      <trkpt lat="49.2247" lon="-1.48094">
        <ele>15</ele>
        <time>2021-12-04T12:48:55Z</time>
      </trkpt>
      <trkpt lat="49.22472" lon="-1.48101">
        <ele>15</ele>
        <time>2021-12-04T12:48:59Z</time>
      </trkpt>
      <trkpt lat="49.22473" lon="-1.48111">
        <ele>14.9</ele>
        <time>2021-12-04T12:49:05Z</time>
      </trkpt>
      <trkpt lat="49.22472" lon="-1.48119">
        <ele>14.9</ele>
        <time>2021-12-04T12:49:12Z</time>
      </trkpt>
      <trkpt lat="49.22473" lon="-1.48128">
        <ele>14.9</ele>
        <time>2021-12-04T12:49:17Z</time>
      </trkpt>
      <trkpt lat="49.22474" lon="-1.48135">
        <ele>14.7</ele>
        <time>2021-12-04T12:49:20Z</time>
      </trkpt>
      <trkpt lat="49.22475" lon="-1.48144">
        <ele>14.5</ele>
        <time>2021-12-04T12:49:24Z</time>
      </trkpt>
      <trkpt lat="49.22477" lon="-1.48153">
        <ele>14.2</ele>
        <time>2021-12-04T12:49:29Z</time>
      </trkpt>
      <trkpt lat="49.22478" lon="-1.48161">
        <ele>14.4</ele>
        <time>2021-12-04T12:49:33Z</time>
      </trkpt>
      <trkpt lat="49.22478" lon="-1.48168">
        <ele>14.7</ele>
        <time>2021-12-04T12:49:37Z</time>
      </trkpt>
      <trkpt lat="49.2248" lon="-1.48177">
        <ele>15.2</ele>
        <time>2021-12-04T12:49:42Z</time>
      </trkpt>
      <trkpt lat="49.22481" lon="-1.48183">
        <ele>17.3</ele>
        <time>2021-12-04T12:50:03Z</time>
      </trkpt>
      <trkpt lat="49.22483" lon="-1.4819">
        <ele>17.1</ele>
        <time>2021-12-04T12:50:08Z</time>
      </trkpt>
      <trkpt lat="49.22483" lon="-1.48199">
        <ele>17</ele>
        <time>2021-12-04T12:50:11Z</time>
      </trkpt>
      <trkpt lat="49.22484" lon="-1.48213">
        <ele>16.9</ele>
        <time>2021-12-04T12:50:14Z</time>
      </trkpt>
      <trkpt lat="49.22485" lon="-1.48221">
        <ele>16.7</ele>
        <time>2021-12-04T12:50:16Z</time>
      </trkpt>
      <trkpt lat="49.22486" lon="-1.48229">
        <ele>16.6</ele>
        <time>2021-12-04T12:50:19Z</time>
      </trkpt>
      <trkpt lat="49.22488" lon="-1.48239">
        <ele>16.3</ele>
        <time>2021-12-04T12:50:22Z</time>
      </trkpt>
      <trkpt lat="49.22489" lon="-1.4825">
        <ele>15.7</ele>
        <time>2021-12-04T12:50:25Z</time>
      </trkpt>
      <trkpt lat="49.22489" lon="-1.48261">
        <ele>15.3</ele>
        <time>2021-12-04T12:50:29Z</time>
      </trkpt>
      <trkpt lat="49.22487" lon="-1.48268">
        <ele>15.2</ele>
        <time>2021-12-04T12:50:32Z</time>
      </trkpt>
      <trkpt lat="49.22489" lon="-1.48275">
        <ele>16.6</ele>
        <time>2021-12-04T12:50:41Z</time>
      </trkpt>
      <trkpt lat="49.22488" lon="-1.48282">
        <ele>18.2</ele>
        <time>2021-12-04T12:50:55Z</time>
      </trkpt>
      <trkpt lat="49.2249" lon="-1.48291">
        <ele>18.2</ele>
        <time>2021-12-04T12:50:58Z</time>
      </trkpt>
      <trkpt lat="49.22491" lon="-1.48298">
        <ele>18.2</ele>
        <time>2021-12-04T12:51:00Z</time>
      </trkpt>
      <trkpt lat="49.22494" lon="-1.48318">
        <ele>19</ele>
        <time>2021-12-04T12:51:06Z</time>
      </trkpt>
      <trkpt lat="49.22495" lon="-1.48326">
        <ele>19.5</ele>
        <time>2021-12-04T12:51:09Z</time>
      </trkpt>
      <trkpt lat="49.22497" lon="-1.48338">
        <ele>20.5</ele>
        <time>2021-12-04T12:51:14Z</time>
      </trkpt>
      <trkpt lat="49.22499" lon="-1.48345">
        <ele>20.8</ele>
        <time>2021-12-04T12:51:17Z</time>
      </trkpt>
      <trkpt lat="49.22499" lon="-1.48352">
        <ele>21.1</ele>
        <time>2021-12-04T12:51:20Z</time>
      </trkpt>
      <trkpt lat="49.22501" lon="-1.4836">
        <ele>21.2</ele>
        <time>2021-12-04T12:51:23Z</time>
      </trkpt>
      <trkpt lat="49.22503" lon="-1.48367">
        <ele>21.4</ele>
        <time>2021-12-04T12:51:28Z</time>
      </trkpt>
      <trkpt lat="49.22505" lon="-1.48375">
        <ele>21.5</ele>
        <time>2021-12-04T12:51:32Z</time>
      </trkpt>
      <trkpt lat="49.22507" lon="-1.48382">
        <ele>21.3</ele>
        <time>2021-12-04T12:51:36Z</time>
      </trkpt>
      <trkpt lat="49.22509" lon="-1.48392">
        <ele>21.1</ele>
        <time>2021-12-04T12:51:40Z</time>
      </trkpt>
      <trkpt lat="49.22512" lon="-1.48398">
        <ele>20.9</ele>
        <time>2021-12-04T12:51:43Z</time>
      </trkpt>
      <trkpt lat="49.22515" lon="-1.48404">
        <ele>20.7</ele>
        <time>2021-12-04T12:51:46Z</time>
      </trkpt>
      <trkpt lat="49.2252" lon="-1.48408">
        <ele>20.8</ele>
        <time>2021-12-04T12:51:51Z</time>
      </trkpt>
      <trkpt lat="49.22525" lon="-1.48408">
        <ele>20.7</ele>
        <time>2021-12-04T12:51:54Z</time>
      </trkpt>
      <trkpt lat="49.2252" lon="-1.48411">
        <ele>20.9</ele>
        <time>2021-12-04T12:52:05Z</time>
      </trkpt>
      <trkpt lat="49.22517" lon="-1.48401">
        <ele>21.2</ele>
        <time>2021-12-04T12:52:10Z</time>
      </trkpt>
      <trkpt lat="49.22515" lon="-1.48394">
        <ele>21.3</ele>
        <time>2021-12-04T12:52:12Z</time>
      </trkpt>
      <trkpt lat="49.22512" lon="-1.48389">
        <ele>21.4</ele>
        <time>2021-12-04T12:52:14Z</time>
      </trkpt>
      <trkpt lat="49.22508" lon="-1.48381">
        <ele>21.4</ele>
        <time>2021-12-04T12:52:17Z</time>
      </trkpt>
      <trkpt lat="49.22505" lon="-1.48376">
        <ele>21.2</ele>
        <time>2021-12-04T12:52:20Z</time>
      </trkpt>
      <trkpt lat="49.22501" lon="-1.48372">
        <ele>21</ele>
        <time>2021-12-04T12:52:24Z</time>
      </trkpt>
      <trkpt lat="49.22495" lon="-1.48374">
        <ele>21.3</ele>
        <time>2021-12-04T12:52:28Z</time>
      </trkpt>
      <trkpt lat="49.22492" lon="-1.48379">
        <ele>21.6</ele>
        <time>2021-12-04T12:52:32Z</time>
      </trkpt>
      <trkpt lat="49.22487" lon="-1.48384">
        <ele>21.9</ele>
        <time>2021-12-04T12:52:35Z</time>
      </trkpt>
      <trkpt lat="49.22484" lon="-1.48389">
        <ele>22</ele>
        <time>2021-12-04T12:52:39Z</time>
      </trkpt>
      <trkpt lat="49.22479" lon="-1.48393">
        <ele>22.1</ele>
        <time>2021-12-04T12:52:43Z</time>
      </trkpt>
      <trkpt lat="49.22475" lon="-1.48398">
        <ele>22.3</ele>
        <time>2021-12-04T12:52:47Z</time>
      </trkpt>
      <trkpt lat="49.22471" lon="-1.48402">
        <ele>22.7</ele>
        <time>2021-12-04T12:52:50Z</time>
      </trkpt>
      <trkpt lat="49.22466" lon="-1.48404">
        <ele>23.1</ele>
        <time>2021-12-04T12:52:55Z</time>
      </trkpt>
      <trkpt lat="49.22461" lon="-1.48402">
        <ele>23.5</ele>
        <time>2021-12-04T12:53:02Z</time>
      </trkpt>
      <trkpt lat="49.22456" lon="-1.484">
        <ele>23.5</ele>
        <time>2021-12-04T12:53:06Z</time>
      </trkpt>
      <trkpt lat="49.22451" lon="-1.48404">
        <ele>22.6</ele>
        <time>2021-12-04T12:53:12Z</time>
      </trkpt>
      <trkpt lat="49.22446" lon="-1.48405">
        <ele>21.6</ele>
        <time>2021-12-04T12:53:14Z</time>
      </trkpt>
      <trkpt lat="49.22429" lon="-1.48383">
        <ele>20.6</ele>
        <time>2021-12-04T12:53:30Z</time>
      </trkpt>
      <trkpt lat="49.22425" lon="-1.48378">
        <ele>20.7</ele>
        <time>2021-12-04T12:53:35Z</time>
      </trkpt>
      <trkpt lat="49.2242" lon="-1.48374">
        <ele>20.9</ele>
        <time>2021-12-04T12:53:41Z</time>
      </trkpt>
      <trkpt lat="49.22416" lon="-1.48371">
        <ele>22.1</ele>
        <time>2021-12-04T12:53:43Z</time>
      </trkpt>
      <trkpt lat="49.2241" lon="-1.48365">
        <ele>23.8</ele>
        <time>2021-12-04T12:53:46Z</time>
      </trkpt>
      <trkpt lat="49.22406" lon="-1.48359">
        <ele>26.2</ele>
        <time>2021-12-04T12:53:50Z</time>
      </trkpt>
      <trkpt lat="49.224" lon="-1.48355">
        <ele>26.8</ele>
        <time>2021-12-04T12:53:55Z</time>
      </trkpt>
      <trkpt lat="49.22396" lon="-1.48349">
        <ele>25.9</ele>
        <time>2021-12-04T12:54:01Z</time>
      </trkpt>
      <trkpt lat="49.22392" lon="-1.48343">
        <ele>25.5</ele>
        <time>2021-12-04T12:54:08Z</time>
      </trkpt>
      <trkpt lat="49.2239" lon="-1.48335">
        <ele>25.1</ele>
        <time>2021-12-04T12:54:13Z</time>
      </trkpt>
      <trkpt lat="49.22385" lon="-1.48329">
        <ele>24</ele>
        <time>2021-12-04T12:54:20Z</time>
      </trkpt>
      <trkpt lat="49.2238" lon="-1.48325">
        <ele>23</ele>
        <time>2021-12-04T12:54:24Z</time>
      </trkpt>
      <trkpt lat="49.22374" lon="-1.48322">
        <ele>22.1</ele>
        <time>2021-12-04T12:54:28Z</time>
      </trkpt>
      <trkpt lat="49.2237" lon="-1.48316">
        <ele>20.6</ele>
        <time>2021-12-04T12:54:40Z</time>
      </trkpt>
      <trkpt lat="49.22368" lon="-1.4831">
        <ele>18.8</ele>
        <time>2021-12-04T12:54:51Z</time>
      </trkpt>
      <trkpt lat="49.22362" lon="-1.48306">
        <ele>18.4</ele>
        <time>2021-12-04T12:54:57Z</time>
      </trkpt>
      <trkpt lat="49.22357" lon="-1.48298">
        <ele>18.4</ele>
        <time>2021-12-04T12:55:02Z</time>
      </trkpt>
      <trkpt lat="49.22354" lon="-1.48288">
        <ele>18.4</ele>
        <time>2021-12-04T12:55:05Z</time>
      </trkpt>
      <trkpt lat="49.22353" lon="-1.4828">
        <ele>18.6</ele>
        <time>2021-12-04T12:55:09Z</time>
      </trkpt>
      <trkpt lat="49.22349" lon="-1.48272">
        <ele>18.7</ele>
        <time>2021-12-04T12:55:15Z</time>
      </trkpt>
      <trkpt lat="49.22347" lon="-1.48266">
        <ele>18.8</ele>
        <time>2021-12-04T12:55:18Z</time>
      </trkpt>
      <trkpt lat="49.22346" lon="-1.48257">
        <ele>19.1</ele>
        <time>2021-12-04T12:55:21Z</time>
      </trkpt>
      <trkpt lat="49.22345" lon="-1.48248">
        <ele>19.3</ele>
        <time>2021-12-04T12:55:25Z</time>
      </trkpt>
      <trkpt lat="49.22342" lon="-1.48241">
        <ele>19.7</ele>
        <time>2021-12-04T12:55:28Z</time>
      </trkpt>
      <trkpt lat="49.2234" lon="-1.48233">
        <ele>20.1</ele>
        <time>2021-12-04T12:55:32Z</time>
      </trkpt>
      <trkpt lat="49.22337" lon="-1.48227">
        <ele>20.4</ele>
        <time>2021-12-04T12:55:35Z</time>
      </trkpt>
      <trkpt lat="49.22335" lon="-1.48219">
        <ele>20.6</ele>
        <time>2021-12-04T12:55:39Z</time>
      </trkpt>
      <trkpt lat="49.22332" lon="-1.48212">
        <ele>20.5</ele>
        <time>2021-12-04T12:55:42Z</time>
      </trkpt>
      <trkpt lat="49.2233" lon="-1.48202">
        <ele>20.3</ele>
        <time>2021-12-04T12:55:46Z</time>
      </trkpt>
      <trkpt lat="49.22327" lon="-1.48194">
        <ele>20.1</ele>
        <time>2021-12-04T12:55:50Z</time>
      </trkpt>
      <trkpt lat="49.22325" lon="-1.48185">
        <ele>19.9</ele>
        <time>2021-12-04T12:55:53Z</time>
      </trkpt>
      <trkpt lat="49.22322" lon="-1.48179">
        <ele>19.8</ele>
        <time>2021-12-04T12:55:56Z</time>
      </trkpt>
      <trkpt lat="49.22318" lon="-1.48169">
        <ele>19.7</ele>
        <time>2021-12-04T12:56:00Z</time>
      </trkpt>
      <trkpt lat="49.22314" lon="-1.48162">
        <ele>19.6</ele>
        <time>2021-12-04T12:56:04Z</time>
      </trkpt>
      <trkpt lat="49.22315" lon="-1.48155">
        <ele>19.8</ele>
        <time>2021-12-04T12:56:10Z</time>
      </trkpt>
      <trkpt lat="49.22313" lon="-1.48148">
        <ele>20</ele>
        <time>2021-12-04T12:56:14Z</time>
      </trkpt>
      <trkpt lat="49.22312" lon="-1.4814">
        <ele>20.4</ele>
        <time>2021-12-04T12:56:19Z</time>
      </trkpt>
      <trkpt lat="49.2231" lon="-1.48134">
        <ele>20.6</ele>
        <time>2021-12-04T12:56:23Z</time>
      </trkpt>
      <trkpt lat="49.22307" lon="-1.48126">
        <ele>21.4</ele>
        <time>2021-12-04T12:56:27Z</time>
      </trkpt>
      <trkpt lat="49.22303" lon="-1.48121">
        <ele>23.1</ele>
        <time>2021-12-04T12:56:43Z</time>
      </trkpt>
      <trkpt lat="49.22298" lon="-1.48118">
        <ele>23.1</ele>
        <time>2021-12-04T12:56:47Z</time>
      </trkpt>
      <trkpt lat="49.22294" lon="-1.48115">
        <ele>23.1</ele>
        <time>2021-12-04T12:56:55Z</time>
      </trkpt>
      <trkpt lat="49.22289" lon="-1.4811">
        <ele>23.1</ele>
        <time>2021-12-04T12:56:59Z</time>
      </trkpt>
      <trkpt lat="49.22286" lon="-1.48102">
        <ele>23.1</ele>
        <time>2021-12-04T12:57:02Z</time>
      </trkpt>
      <trkpt lat="49.22283" lon="-1.48098">
        <ele>23.2</ele>
        <time>2021-12-04T12:57:05Z</time>
      </trkpt>
      <trkpt lat="49.22279" lon="-1.48092">
        <ele>23.4</ele>
        <time>2021-12-04T12:57:08Z</time>
      </trkpt>
      <trkpt lat="49.22275" lon="-1.48087">
        <ele>23.8</ele>
        <time>2021-12-04T12:57:10Z</time>
      </trkpt>
      <trkpt lat="49.22272" lon="-1.48082">
        <ele>23.8</ele>
        <time>2021-12-04T12:57:13Z</time>
      </trkpt>
      <trkpt lat="49.22269" lon="-1.48075">
        <ele>23.6</ele>
        <time>2021-12-04T12:57:17Z</time>
      </trkpt>
      <trkpt lat="49.22266" lon="-1.48069">
        <ele>23.3</ele>
        <time>2021-12-04T12:57:21Z</time>
      </trkpt>
      <trkpt lat="49.22264" lon="-1.48062">
        <ele>23.2</ele>
        <time>2021-12-04T12:57:24Z</time>
      </trkpt>
      <trkpt lat="49.22261" lon="-1.48056">
        <ele>23.3</ele>
        <time>2021-12-04T12:57:28Z</time>
      </trkpt>
      <trkpt lat="49.22258" lon="-1.48048">
        <ele>23.5</ele>
        <time>2021-12-04T12:57:32Z</time>
      </trkpt>
      <trkpt lat="49.22257" lon="-1.48042">
        <ele>23.8</ele>
        <time>2021-12-04T12:57:35Z</time>
      </trkpt>
      <trkpt lat="49.22255" lon="-1.48034">
        <ele>26.9</ele>
        <time>2021-12-04T12:58:04Z</time>
      </trkpt>
      <trkpt lat="49.22252" lon="-1.48026">
        <ele>27.1</ele>
        <time>2021-12-04T12:58:08Z</time>
      </trkpt>
      <trkpt lat="49.22248" lon="-1.48022">
        <ele>27.1</ele>
        <time>2021-12-04T12:58:15Z</time>
      </trkpt>
      <trkpt lat="49.22243" lon="-1.48021">
        <ele>27.2</ele>
        <time>2021-12-04T12:58:20Z</time>
      </trkpt>
      <trkpt lat="49.22239" lon="-1.48026">
        <ele>27.2</ele>
        <time>2021-12-04T12:58:23Z</time>
      </trkpt>
      <trkpt lat="49.22234" lon="-1.48033">
        <ele>27.2</ele>
        <time>2021-12-04T12:58:27Z</time>
      </trkpt>
      <trkpt lat="49.2223" lon="-1.48032">
        <ele>27.9</ele>
        <time>2021-12-04T12:58:42Z</time>
      </trkpt>
      <trkpt lat="49.22225" lon="-1.48037">
        <ele>28.6</ele>
        <time>2021-12-04T12:58:54Z</time>
      </trkpt>
      <trkpt lat="49.2222" lon="-1.48038">
        <ele>28.6</ele>
        <time>2021-12-04T12:58:58Z</time>
      </trkpt>
      <trkpt lat="49.22215" lon="-1.4804">
        <ele>28.7</ele>
        <time>2021-12-04T12:59:01Z</time>
      </trkpt>
      <trkpt lat="49.22211" lon="-1.48043">
        <ele>29.1</ele>
        <time>2021-12-04T12:59:04Z</time>
      </trkpt>
      <trkpt lat="49.22205" lon="-1.48046">
        <ele>29.3</ele>
        <time>2021-12-04T12:59:08Z</time>
      </trkpt>
      <trkpt lat="49.222" lon="-1.48048">
        <ele>29.4</ele>
        <time>2021-12-04T12:59:12Z</time>
      </trkpt>
      <trkpt lat="49.22194" lon="-1.48049">
        <ele>29.2</ele>
        <time>2021-12-04T12:59:16Z</time>
      </trkpt>
      <trkpt lat="49.22189" lon="-1.48049">
        <ele>28.9</ele>
        <time>2021-12-04T12:59:21Z</time>
      </trkpt>
      <trkpt lat="49.22184" lon="-1.48049">
        <ele>28</ele>
        <time>2021-12-04T12:59:32Z</time>
      </trkpt>
      <trkpt lat="49.22178" lon="-1.48053">
        <ele>27.6</ele>
        <time>2021-12-04T12:59:37Z</time>
      </trkpt>
      <trkpt lat="49.22173" lon="-1.48056">
        <ele>27</ele>
        <time>2021-12-04T12:59:40Z</time>
      </trkpt>
      <trkpt lat="49.22168" lon="-1.48057">
        <ele>26.9</ele>
        <time>2021-12-04T12:59:43Z</time>
      </trkpt>
      <trkpt lat="49.22163" lon="-1.48062">
        <ele>27</ele>
        <time>2021-12-04T12:59:47Z</time>
      </trkpt>
      <trkpt lat="49.22159" lon="-1.48067">
        <ele>27.2</ele>
        <time>2021-12-04T12:59:50Z</time>
      </trkpt>
      <trkpt lat="49.22155" lon="-1.48069">
        <ele>27.3</ele>
        <time>2021-12-04T12:59:53Z</time>
      </trkpt>
      <trkpt lat="49.22149" lon="-1.48072">
        <ele>27.3</ele>
        <time>2021-12-04T12:59:57Z</time>
      </trkpt>
      <trkpt lat="49.22144" lon="-1.48071">
        <ele>27.3</ele>
        <time>2021-12-04T13:00:01Z</time>
      </trkpt>
      <trkpt lat="49.22139" lon="-1.48071">
        <ele>27.3</ele>
        <time>2021-12-04T13:00:04Z</time>
      </trkpt>
      <trkpt lat="49.22133" lon="-1.48072">
        <ele>27</ele>
        <time>2021-12-04T13:00:08Z</time>
      </trkpt>
      <trkpt lat="49.22128" lon="-1.48073">
        <ele>26.5</ele>
        <time>2021-12-04T13:00:12Z</time>
      </trkpt>
      <trkpt lat="49.22124" lon="-1.48076">
        <ele>26.1</ele>
        <time>2021-12-04T13:00:16Z</time>
      </trkpt>
      <trkpt lat="49.22119" lon="-1.4808">
        <ele>26.2</ele>
        <time>2021-12-04T13:00:20Z</time>
      </trkpt>
      <trkpt lat="49.22113" lon="-1.48083">
        <ele>26.4</ele>
        <time>2021-12-04T13:00:24Z</time>
      </trkpt>
      <trkpt lat="49.22107" lon="-1.48087">
        <ele>26.4</ele>
        <time>2021-12-04T13:00:29Z</time>
      </trkpt>
      <trkpt lat="49.22102" lon="-1.4809">
        <ele>26.2</ele>
        <time>2021-12-04T13:00:32Z</time>
      </trkpt>
      <trkpt lat="49.22098" lon="-1.48091">
        <ele>25.8</ele>
        <time>2021-12-04T13:00:36Z</time>
      </trkpt>
      <trkpt lat="49.22093" lon="-1.48091">
        <ele>25.4</ele>
        <time>2021-12-04T13:00:39Z</time>
      </trkpt>
      <trkpt lat="49.22087" lon="-1.48092">
        <ele>25.2</ele>
        <time>2021-12-04T13:00:43Z</time>
      </trkpt>
      <trkpt lat="49.22083" lon="-1.48094">
        <ele>25.3</ele>
        <time>2021-12-04T13:00:47Z</time>
      </trkpt>
      <trkpt lat="49.22076" lon="-1.48097">
        <ele>25.5</ele>
        <time>2021-12-04T13:00:51Z</time>
      </trkpt>
      <trkpt lat="49.22073" lon="-1.48105">
        <ele>26</ele>
        <time>2021-12-04T13:01:08Z</time>
      </trkpt>
      <trkpt lat="49.22068" lon="-1.48109">
        <ele>27.6</ele>
        <time>2021-12-04T13:01:11Z</time>
      </trkpt>
      <trkpt lat="49.22062" lon="-1.4811">
        <ele>28</ele>
        <time>2021-12-04T13:01:15Z</time>
      </trkpt>
      <trkpt lat="49.22056" lon="-1.4811">
        <ele>27.9</ele>
        <time>2021-12-04T13:01:17Z</time>
      </trkpt>
      <trkpt lat="49.22044" lon="-1.48112">
        <ele>28.2</ele>
        <time>2021-12-04T13:01:24Z</time>
      </trkpt>
      <trkpt lat="49.22038" lon="-1.48114">
        <ele>28.2</ele>
        <time>2021-12-04T13:01:27Z</time>
      </trkpt>
      <trkpt lat="49.22031" lon="-1.48115">
        <ele>28</ele>
        <time>2021-12-04T13:01:31Z</time>
      </trkpt>
      <trkpt lat="49.22026" lon="-1.48117">
        <ele>27.3</ele>
        <time>2021-12-04T13:01:35Z</time>
      </trkpt>
      <trkpt lat="49.22021" lon="-1.4812">
        <ele>26.8</ele>
        <time>2021-12-04T13:01:38Z</time>
      </trkpt>
      <trkpt lat="49.22015" lon="-1.48123">
        <ele>26.2</ele>
        <time>2021-12-04T13:01:44Z</time>
      </trkpt>
      <trkpt lat="49.22011" lon="-1.48126">
        <ele>25.5</ele>
        <time>2021-12-04T13:01:47Z</time>
      </trkpt>
      <trkpt lat="49.22007" lon="-1.48129">
        <ele>24.6</ele>
        <time>2021-12-04T13:01:51Z</time>
      </trkpt>
      <trkpt lat="49.22002" lon="-1.48132">
        <ele>23.3</ele>
        <time>2021-12-04T13:01:56Z</time>
      </trkpt>
      <trkpt lat="49.21996" lon="-1.48134">
        <ele>22.5</ele>
        <time>2021-12-04T13:02:03Z</time>
      </trkpt>
      <trkpt lat="49.21991" lon="-1.48136">
        <ele>23.8</ele>
        <time>2021-12-04T13:02:10Z</time>
      </trkpt>
      <trkpt lat="49.21986" lon="-1.48138">
        <ele>24.9</ele>
        <time>2021-12-04T13:02:16Z</time>
      </trkpt>
      <trkpt lat="49.21982" lon="-1.4814">
        <ele>25.5</ele>
        <time>2021-12-04T13:02:21Z</time>
      </trkpt>
      <trkpt lat="49.21976" lon="-1.48142">
        <ele>24.9</ele>
        <time>2021-12-04T13:02:34Z</time>
      </trkpt>
      <trkpt lat="49.21971" lon="-1.48141">
        <ele>24.5</ele>
        <time>2021-12-04T13:02:41Z</time>
      </trkpt>
      <trkpt lat="49.21964" lon="-1.48144">
        <ele>23.5</ele>
        <time>2021-12-04T13:02:52Z</time>
      </trkpt>
      <trkpt lat="49.21959" lon="-1.48147">
        <ele>23.3</ele>
        <time>2021-12-04T13:02:55Z</time>
      </trkpt>
      <trkpt lat="49.21955" lon="-1.4815">
        <ele>23.4</ele>
        <time>2021-12-04T13:02:58Z</time>
      </trkpt>
      <trkpt lat="49.21949" lon="-1.48157">
        <ele>23.4</ele>
        <time>2021-12-04T13:03:00Z</time>
      </trkpt>
      <trkpt lat="49.21944" lon="-1.4816">
        <ele>22.7</ele>
        <time>2021-12-04T13:03:06Z</time>
      </trkpt>
      <trkpt lat="49.2194" lon="-1.48164">
        <ele>23.6</ele>
        <time>2021-12-04T13:03:23Z</time>
      </trkpt>
      <trkpt lat="49.21937" lon="-1.4817">
        <ele>24.6</ele>
        <time>2021-12-04T13:03:34Z</time>
      </trkpt>
      <trkpt lat="49.21935" lon="-1.48178">
        <ele>24.4</ele>
        <time>2021-12-04T13:03:47Z</time>
      </trkpt>
      <trkpt lat="49.21933" lon="-1.48186">
        <ele>24.1</ele>
        <time>2021-12-04T13:03:52Z</time>
      </trkpt>
      <trkpt lat="49.21931" lon="-1.48194">
        <ele>23.4</ele>
        <time>2021-12-04T13:03:55Z</time>
      </trkpt>
      <trkpt lat="49.21929" lon="-1.48202">
        <ele>22.4</ele>
        <time>2021-12-04T13:04:00Z</time>
      </trkpt>
      <trkpt lat="49.21928" lon="-1.48211">
        <ele>21.8</ele>
        <time>2021-12-04T13:04:04Z</time>
      </trkpt>
      <trkpt lat="49.21928" lon="-1.48221">
        <ele>21.4</ele>
        <time>2021-12-04T13:04:08Z</time>
      </trkpt>
      <trkpt lat="49.21927" lon="-1.4823">
        <ele>21</ele>
        <time>2021-12-04T13:04:11Z</time>
      </trkpt>
      <trkpt lat="49.21927" lon="-1.48238">
        <ele>21</ele>
        <time>2021-12-04T13:04:15Z</time>
      </trkpt>
      <trkpt lat="49.21927" lon="-1.48245">
        <ele>21.4</ele>
        <time>2021-12-04T13:04:20Z</time>
      </trkpt>
      <trkpt lat="49.21928" lon="-1.48253">
        <ele>21.4</ele>
        <time>2021-12-04T13:04:24Z</time>
      </trkpt>
      <trkpt lat="49.21924" lon="-1.48261">
        <ele>20.8</ele>
        <time>2021-12-04T13:04:30Z</time>
      </trkpt>
      <trkpt lat="49.2192" lon="-1.48267">
        <ele>20.4</ele>
        <time>2021-12-04T13:04:34Z</time>
      </trkpt>
      <trkpt lat="49.21918" lon="-1.48274">
        <ele>19.8</ele>
        <time>2021-12-04T13:04:37Z</time>
      </trkpt>
      <trkpt lat="49.21915" lon="-1.4828">
        <ele>18.7</ele>
        <time>2021-12-04T13:04:41Z</time>
      </trkpt>
      <trkpt lat="49.21913" lon="-1.48287">
        <ele>17.9</ele>
        <time>2021-12-04T13:04:46Z</time>
      </trkpt>
      <trkpt lat="49.21909" lon="-1.48295">
        <ele>17</ele>
        <time>2021-12-04T13:04:51Z</time>
      </trkpt>
      <trkpt lat="49.21908" lon="-1.48306">
        <ele>16.1</ele>
        <time>2021-12-04T13:04:55Z</time>
      </trkpt>
      <trkpt lat="49.2191" lon="-1.48313">
        <ele>15.7</ele>
        <time>2021-12-04T13:04:59Z</time>
      </trkpt>
      <trkpt lat="49.21922" lon="-1.4827">
        <ele>11.2</ele>
        <time>2021-12-04T13:05:23Z</time>
      </trkpt>
      <trkpt lat="49.21926" lon="-1.48272">
        <ele>13.6</ele>
        <time>2021-12-04T13:05:30Z</time>
      </trkpt>
      <trkpt lat="49.21929" lon="-1.48279">
        <ele>14.6</ele>
        <time>2021-12-04T13:05:32Z</time>
      </trkpt>
      <trkpt lat="49.21929" lon="-1.48289">
        <ele>16.6</ele>
        <time>2021-12-04T13:05:35Z</time>
      </trkpt>
      <trkpt lat="49.21918" lon="-1.48319">
        <ele>18.6</ele>
        <time>2021-12-04T13:05:45Z</time>
      </trkpt>
      <trkpt lat="49.21916" lon="-1.48326">
        <ele>17.5</ele>
        <time>2021-12-04T13:05:48Z</time>
      </trkpt>
      <trkpt lat="49.21911" lon="-1.48357">
        <ele>13.3</ele>
        <time>2021-12-04T13:06:02Z</time>
      </trkpt>
      <trkpt lat="49.2191" lon="-1.48367">
        <ele>11.9</ele>
        <time>2021-12-04T13:06:10Z</time>
      </trkpt>
      <trkpt lat="49.21909" lon="-1.48377">
        <ele>11.7</ele>
        <time>2021-12-04T13:06:12Z</time>
      </trkpt>
      <trkpt lat="49.21908" lon="-1.48386">
        <ele>11.6</ele>
        <time>2021-12-04T13:06:14Z</time>
      </trkpt>
      <trkpt lat="49.21908" lon="-1.48394">
        <ele>11.7</ele>
        <time>2021-12-04T13:06:17Z</time>
      </trkpt>
      <trkpt lat="49.21907" lon="-1.48401">
        <ele>11.9</ele>
        <time>2021-12-04T13:06:19Z</time>
      </trkpt>
      <trkpt lat="49.21906" lon="-1.48409">
        <ele>12.1</ele>
        <time>2021-12-04T13:06:21Z</time>
      </trkpt>
      <trkpt lat="49.21905" lon="-1.48419">
        <ele>12.6</ele>
        <time>2021-12-04T13:06:24Z</time>
      </trkpt>
      <trkpt lat="49.21906" lon="-1.48426">
        <ele>13.2</ele>
        <time>2021-12-04T13:06:27Z</time>
      </trkpt>
      <trkpt lat="49.21906" lon="-1.48435">
        <ele>14.9</ele>
        <time>2021-12-04T13:06:31Z</time>
      </trkpt>
      <trkpt lat="49.21907" lon="-1.48442">
        <ele>15.8</ele>
        <time>2021-12-04T13:06:35Z</time>
      </trkpt>
      <trkpt lat="49.21909" lon="-1.4845">
        <ele>15.4</ele>
        <time>2021-12-04T13:06:56Z</time>
      </trkpt>
      <trkpt lat="49.21912" lon="-1.48457">
        <ele>15.4</ele>
        <time>2021-12-04T13:07:00Z</time>
      </trkpt>
      <trkpt lat="49.21914" lon="-1.48468">
        <ele>15.6</ele>
        <time>2021-12-04T13:07:04Z</time>
      </trkpt>
      <trkpt lat="49.21914" lon="-1.48477">
        <ele>15.8</ele>
        <time>2021-12-04T13:07:06Z</time>
      </trkpt>
      <trkpt lat="49.21916" lon="-1.48485">
        <ele>16.2</ele>
        <time>2021-12-04T13:07:09Z</time>
      </trkpt>
      <trkpt lat="49.21918" lon="-1.48491">
        <ele>16.4</ele>
        <time>2021-12-04T13:07:13Z</time>
      </trkpt>
      <trkpt lat="49.21921" lon="-1.48498">
        <ele>16.6</ele>
        <time>2021-12-04T13:07:17Z</time>
      </trkpt>
      <trkpt lat="49.21925" lon="-1.48504">
        <ele>16.9</ele>
        <time>2021-12-04T13:07:21Z</time>
      </trkpt>
      <trkpt lat="49.2193" lon="-1.48508">
        <ele>17</ele>
        <time>2021-12-04T13:07:24Z</time>
      </trkpt>
      <trkpt lat="49.21933" lon="-1.48515">
        <ele>16.8</ele>
        <time>2021-12-04T13:07:28Z</time>
      </trkpt>
      <trkpt lat="49.21936" lon="-1.48524">
        <ele>16</ele>
        <time>2021-12-04T13:07:32Z</time>
      </trkpt>
      <trkpt lat="49.21938" lon="-1.48532">
        <ele>15.4</ele>
        <time>2021-12-04T13:07:36Z</time>
      </trkpt>
      <trkpt lat="49.21939" lon="-1.48538">
        <ele>14.9</ele>
        <time>2021-12-04T13:07:40Z</time>
      </trkpt>
      <trkpt lat="49.21939" lon="-1.48547">
        <ele>14.2</ele>
        <time>2021-12-04T13:07:44Z</time>
      </trkpt>
      <trkpt lat="49.21938" lon="-1.48554">
        <ele>13.6</ele>
        <time>2021-12-04T13:07:47Z</time>
      </trkpt>
      <trkpt lat="49.21936" lon="-1.48563">
        <ele>13.6</ele>
        <time>2021-12-04T13:07:51Z</time>
      </trkpt>
      <trkpt lat="49.21937" lon="-1.48571">
        <ele>14.1</ele>
        <time>2021-12-04T13:07:55Z</time>
      </trkpt>
      <trkpt lat="49.21937" lon="-1.48581">
        <ele>14.5</ele>
        <time>2021-12-04T13:07:59Z</time>
      </trkpt>
      <trkpt lat="49.21938" lon="-1.48588">
        <ele>14.7</ele>
        <time>2021-12-04T13:08:02Z</time>
      </trkpt>
      <trkpt lat="49.21939" lon="-1.48595">
        <ele>15.2</ele>
        <time>2021-12-04T13:08:07Z</time>
      </trkpt>
      <trkpt lat="49.21941" lon="-1.48603">
        <ele>16.1</ele>
        <time>2021-12-04T13:08:11Z</time>
      </trkpt>
      <trkpt lat="49.21942" lon="-1.4861">
        <ele>17</ele>
        <time>2021-12-04T13:08:15Z</time>
      </trkpt>
      <trkpt lat="49.21943" lon="-1.48618">
        <ele>17.8</ele>
        <time>2021-12-04T13:08:20Z</time>
      </trkpt>
      <trkpt lat="49.21944" lon="-1.48626">
        <ele>18</ele>
        <time>2021-12-04T13:08:24Z</time>
      </trkpt>
      <trkpt lat="49.21945" lon="-1.48633">
        <ele>18.1</ele>
        <time>2021-12-04T13:08:28Z</time>
      </trkpt>
      <trkpt lat="49.21947" lon="-1.48641">
        <ele>18.4</ele>
        <time>2021-12-04T13:08:33Z</time>
      </trkpt>
      <trkpt lat="49.21948" lon="-1.48649">
        <ele>18.6</ele>
        <time>2021-12-04T13:08:38Z</time>
      </trkpt>
      <trkpt lat="49.21949" lon="-1.48658">
        <ele>18.9</ele>
        <time>2021-12-04T13:08:43Z</time>
      </trkpt>
      <trkpt lat="49.21951" lon="-1.48666">
        <ele>19.1</ele>
        <time>2021-12-04T13:08:48Z</time>
      </trkpt>
      <trkpt lat="49.21951" lon="-1.48675">
        <ele>19.4</ele>
        <time>2021-12-04T13:08:53Z</time>
      </trkpt>
      <trkpt lat="49.2195" lon="-1.48684">
        <ele>19.7</ele>
        <time>2021-12-04T13:08:57Z</time>
      </trkpt>
      <trkpt lat="49.21954" lon="-1.48689">
        <ele>19</ele>
        <time>2021-12-04T13:09:14Z</time>
      </trkpt>
      <trkpt lat="49.21958" lon="-1.48696">
        <ele>19</ele>
        <time>2021-12-04T13:09:18Z</time>
      </trkpt>
      <trkpt lat="49.21959" lon="-1.48703">
        <ele>18.9</ele>
        <time>2021-12-04T13:09:20Z</time>
      </trkpt>
      <trkpt lat="49.21962" lon="-1.48711">
        <ele>19</ele>
        <time>2021-12-04T13:09:23Z</time>
      </trkpt>
      <trkpt lat="49.21962" lon="-1.48719">
        <ele>18.8</ele>
        <time>2021-12-04T13:09:27Z</time>
      </trkpt>
      <trkpt lat="49.21964" lon="-1.48738">
        <ele>17.7</ele>
        <time>2021-12-04T13:09:35Z</time>
      </trkpt>
      <trkpt lat="49.21965" lon="-1.48746">
        <ele>17.3</ele>
        <time>2021-12-04T13:09:38Z</time>
      </trkpt>
      <trkpt lat="49.21967" lon="-1.48753">
        <ele>17.1</ele>
        <time>2021-12-04T13:09:42Z</time>
      </trkpt>
      <trkpt lat="49.21967" lon="-1.48761">
        <ele>16.9</ele>
        <time>2021-12-04T13:09:45Z</time>
      </trkpt>
      <trkpt lat="49.21968" lon="-1.48769">
        <ele>17</ele>
        <time>2021-12-04T13:10:03Z</time>
      </trkpt>
      <trkpt lat="49.2197" lon="-1.48777">
        <ele>17.1</ele>
        <time>2021-12-04T13:10:06Z</time>
      </trkpt>
      <trkpt lat="49.21974" lon="-1.48781">
        <ele>17.2</ele>
        <time>2021-12-04T13:10:10Z</time>
      </trkpt>
      <trkpt lat="49.21977" lon="-1.48788">
        <ele>17.4</ele>
        <time>2021-12-04T13:10:13Z</time>
      </trkpt>
      <trkpt lat="49.21979" lon="-1.48795">
        <ele>17.7</ele>
        <time>2021-12-04T13:10:17Z</time>
      </trkpt>
      <trkpt lat="49.21982" lon="-1.48803">
        <ele>18</ele>
        <time>2021-12-04T13:10:21Z</time>
      </trkpt>
      <trkpt lat="49.21985" lon="-1.48809">
        <ele>18.6</ele>
        <time>2021-12-04T13:10:25Z</time>
      </trkpt>
      <trkpt lat="49.21988" lon="-1.48816">
        <ele>19.4</ele>
        <time>2021-12-04T13:10:29Z</time>
      </trkpt>
      <trkpt lat="49.21992" lon="-1.48822">
        <ele>20.4</ele>
        <time>2021-12-04T13:10:34Z</time>
      </trkpt>
      <trkpt lat="49.21995" lon="-1.48828">
        <ele>20.7</ele>
        <time>2021-12-04T13:10:38Z</time>
      </trkpt>
      <trkpt lat="49.21998" lon="-1.48833">
        <ele>20.5</ele>
        <time>2021-12-04T13:10:43Z</time>
      </trkpt>
      <trkpt lat="49.22002" lon="-1.48838">
        <ele>20</ele>
        <time>2021-12-04T13:10:47Z</time>
      </trkpt>
      <trkpt lat="49.22006" lon="-1.48845">
        <ele>19.3</ele>
        <time>2021-12-04T13:10:51Z</time>
      </trkpt>
      <trkpt lat="49.22009" lon="-1.4885">
        <ele>18.8</ele>
        <time>2021-12-04T13:10:56Z</time>
      </trkpt>
      <trkpt lat="49.22011" lon="-1.48856">
        <ele>18.6</ele>
        <time>2021-12-04T13:11:00Z</time>
      </trkpt>
      <trkpt lat="49.22014" lon="-1.48862">
        <ele>18.6</ele>
        <time>2021-12-04T13:11:03Z</time>
      </trkpt>
      <trkpt lat="49.22018" lon="-1.48866">
        <ele>19.3</ele>
        <time>2021-12-04T13:11:23Z</time>
      </trkpt>
      <trkpt lat="49.22023" lon="-1.4887">
        <ele>19.3</ele>
        <time>2021-12-04T13:11:27Z</time>
      </trkpt>
      <trkpt lat="49.22027" lon="-1.48877">
        <ele>19.3</ele>
        <time>2021-12-04T13:11:31Z</time>
      </trkpt>
      <trkpt lat="49.2203" lon="-1.48883">
        <ele>19.2</ele>
        <time>2021-12-04T13:11:35Z</time>
      </trkpt>
      <trkpt lat="49.22035" lon="-1.48888">
        <ele>19.1</ele>
        <time>2021-12-04T13:11:39Z</time>
      </trkpt>
      <trkpt lat="49.22039" lon="-1.48892">
        <ele>18.7</ele>
        <time>2021-12-04T13:11:43Z</time>
      </trkpt>
      <trkpt lat="49.22044" lon="-1.48895">
        <ele>18.4</ele>
        <time>2021-12-04T13:11:46Z</time>
      </trkpt>
      <trkpt lat="49.22048" lon="-1.48897">
        <ele>18.3</ele>
        <time>2021-12-04T13:11:49Z</time>
      </trkpt>
      <trkpt lat="49.22054" lon="-1.48898">
        <ele>18.2</ele>
        <time>2021-12-04T13:11:54Z</time>
      </trkpt>
      <trkpt lat="49.2206" lon="-1.489">
        <ele>18.2</ele>
        <time>2021-12-04T13:12:00Z</time>
      </trkpt>
      <trkpt lat="49.22065" lon="-1.48902">
        <ele>18</ele>
        <time>2021-12-04T13:12:04Z</time>
      </trkpt>
      <trkpt lat="49.2207" lon="-1.48904">
        <ele>18.2</ele>
        <time>2021-12-04T13:12:08Z</time>
      </trkpt>
      <trkpt lat="49.22074" lon="-1.48907">
        <ele>18.3</ele>
        <time>2021-12-04T13:12:11Z</time>
      </trkpt>
      <trkpt lat="49.22079" lon="-1.4891">
        <ele>18.5</ele>
        <time>2021-12-04T13:12:14Z</time>
      </trkpt>
      <trkpt lat="49.22083" lon="-1.48913">
        <ele>18.4</ele>
        <time>2021-12-04T13:12:18Z</time>
      </trkpt>
      <trkpt lat="49.22088" lon="-1.48914">
        <ele>18.2</ele>
        <time>2021-12-04T13:12:21Z</time>
      </trkpt>
      <trkpt lat="49.22093" lon="-1.48915">
        <ele>18.3</ele>
        <time>2021-12-04T13:12:25Z</time>
      </trkpt>
      <trkpt lat="49.22097" lon="-1.48918">
        <ele>18.5</ele>
        <time>2021-12-04T13:12:29Z</time>
      </trkpt>
      <trkpt lat="49.22102" lon="-1.48921">
        <ele>18.9</ele>
        <time>2021-12-04T13:12:33Z</time>
      </trkpt>
      <trkpt lat="49.22108" lon="-1.48918">
        <ele>19.4</ele>
        <time>2021-12-04T13:12:38Z</time>
      </trkpt>
      <trkpt lat="49.22114" lon="-1.48914">
        <ele>19.8</ele>
        <time>2021-12-04T13:12:43Z</time>
      </trkpt>
      <trkpt lat="49.22118" lon="-1.48911">
        <ele>19.9</ele>
        <time>2021-12-04T13:12:47Z</time>
      </trkpt>
      <trkpt lat="49.22123" lon="-1.48908">
        <ele>19.8</ele>
        <time>2021-12-04T13:12:51Z</time>
      </trkpt>
      <trkpt lat="49.22125" lon="-1.489">
        <ele>19.3</ele>
        <time>2021-12-04T13:12:56Z</time>
      </trkpt>
      <trkpt lat="49.22126" lon="-1.48893">
        <ele>18.6</ele>
        <time>2021-12-04T13:13:10Z</time>
      </trkpt>
      <trkpt lat="49.22128" lon="-1.48885">
        <ele>18.4</ele>
        <time>2021-12-04T13:13:18Z</time>
      </trkpt>
      <trkpt lat="49.2213" lon="-1.48879">
        <ele>18.5</ele>
        <time>2021-12-04T13:13:21Z</time>
      </trkpt>
      <trkpt lat="49.22131" lon="-1.48872">
        <ele>18.7</ele>
        <time>2021-12-04T13:13:25Z</time>
      </trkpt>
      <trkpt lat="49.22136" lon="-1.4887">
        <ele>19.3</ele>
        <time>2021-12-04T13:13:29Z</time>
      </trkpt>
      <trkpt lat="49.2214" lon="-1.48867">
        <ele>19.5</ele>
        <time>2021-12-04T13:13:33Z</time>
      </trkpt>
      <trkpt lat="49.22144" lon="-1.4886">
        <ele>19.1</ele>
        <time>2021-12-04T13:13:37Z</time>
      </trkpt>
      <trkpt lat="49.22146" lon="-1.48851">
        <ele>18.3</ele>
        <time>2021-12-04T13:13:41Z</time>
      </trkpt>
      <trkpt lat="49.22147" lon="-1.48843">
        <ele>17.9</ele>
        <time>2021-12-04T13:13:45Z</time>
      </trkpt>
      <trkpt lat="49.22149" lon="-1.48835">
        <ele>18.1</ele>
        <time>2021-12-04T13:13:49Z</time>
      </trkpt>
      <trkpt lat="49.22151" lon="-1.48827">
        <ele>18.7</ele>
        <time>2021-12-04T13:13:54Z</time>
      </trkpt>
      <trkpt lat="49.22154" lon="-1.48821">
        <ele>19.1</ele>
        <time>2021-12-04T13:13:57Z</time>
      </trkpt>
      <trkpt lat="49.22156" lon="-1.48813">
        <ele>19.5</ele>
        <time>2021-12-04T13:14:02Z</time>
      </trkpt>
      <trkpt lat="49.22158" lon="-1.48807">
        <ele>19.7</ele>
        <time>2021-12-04T13:14:05Z</time>
      </trkpt>
      <trkpt lat="49.2216" lon="-1.48798">
        <ele>19.6</ele>
        <time>2021-12-04T13:14:09Z</time>
      </trkpt>
      <trkpt lat="49.22163" lon="-1.48789">
        <ele>19.5</ele>
        <time>2021-12-04T13:14:13Z</time>
      </trkpt>
      <trkpt lat="49.22166" lon="-1.48784">
        <ele>19.1</ele>
        <time>2021-12-04T13:14:18Z</time>
      </trkpt>
      <trkpt lat="49.22168" lon="-1.48777">
        <ele>18.6</ele>
        <time>2021-12-04T13:14:31Z</time>
      </trkpt>
      <trkpt lat="49.22171" lon="-1.48768">
        <ele>18.6</ele>
        <time>2021-12-04T13:14:35Z</time>
      </trkpt>
      <trkpt lat="49.22173" lon="-1.4876">
        <ele>18.6</ele>
        <time>2021-12-04T13:14:38Z</time>
      </trkpt>
      <trkpt lat="49.22175" lon="-1.48751">
        <ele>18.8</ele>
        <time>2021-12-04T13:14:43Z</time>
      </trkpt>
      <trkpt lat="49.22177" lon="-1.48744">
        <ele>18.8</ele>
        <time>2021-12-04T13:14:46Z</time>
      </trkpt>
      <trkpt lat="49.22179" lon="-1.48736">
        <ele>18.6</ele>
        <time>2021-12-04T13:14:51Z</time>
      </trkpt>
      <trkpt lat="49.22182" lon="-1.48729">
        <ele>18.5</ele>
        <time>2021-12-04T13:14:55Z</time>
      </trkpt>
      <trkpt lat="49.22185" lon="-1.48724">
        <ele>18.8</ele>
        <time>2021-12-04T13:14:59Z</time>
      </trkpt>
      <trkpt lat="49.22188" lon="-1.48719">
        <ele>19.2</ele>
        <time>2021-12-04T13:15:02Z</time>
      </trkpt>
      <trkpt lat="49.22191" lon="-1.48711">
        <ele>19.8</ele>
        <time>2021-12-04T13:15:06Z</time>
      </trkpt>
      <trkpt lat="49.22193" lon="-1.48705">
        <ele>20.5</ele>
        <time>2021-12-04T13:15:10Z</time>
      </trkpt>
      <trkpt lat="49.22197" lon="-1.48698">
        <ele>21.1</ele>
        <time>2021-12-04T13:15:13Z</time>
      </trkpt>
      <trkpt lat="49.222" lon="-1.4869">
        <ele>21.5</ele>
        <time>2021-12-04T13:15:17Z</time>
      </trkpt>
      <trkpt lat="49.22203" lon="-1.48684">
        <ele>21.8</ele>
        <time>2021-12-04T13:15:20Z</time>
      </trkpt>
      <trkpt lat="49.22205" lon="-1.48677">
        <ele>21.9</ele>
        <time>2021-12-04T13:15:25Z</time>
      </trkpt>
      <trkpt lat="49.22206" lon="-1.4867">
        <ele>21.8</ele>
        <time>2021-12-04T13:15:28Z</time>
      </trkpt>
      <trkpt lat="49.22208" lon="-1.48663">
        <ele>21.9</ele>
        <time>2021-12-04T13:15:31Z</time>
      </trkpt>
      <trkpt lat="49.2221" lon="-1.48655">
        <ele>21.9</ele>
        <time>2021-12-04T13:15:36Z</time>
      </trkpt>
      <trkpt lat="49.22214" lon="-1.48648">
        <ele>21.9</ele>
        <time>2021-12-04T13:15:39Z</time>
      </trkpt>
      <trkpt lat="49.22218" lon="-1.48641">
        <ele>21.6</ele>
        <time>2021-12-04T13:15:45Z</time>
      </trkpt>
      <trkpt lat="49.22221" lon="-1.48636">
        <ele>21.5</ele>
        <time>2021-12-04T13:15:49Z</time>
      </trkpt>
      <trkpt lat="49.22224" lon="-1.4863">
        <ele>21.5</ele>
        <time>2021-12-04T13:15:53Z</time>
      </trkpt>
      <trkpt lat="49.22227" lon="-1.48624">
        <ele>21.5</ele>
        <time>2021-12-04T13:15:56Z</time>
      </trkpt>
      <trkpt lat="49.22231" lon="-1.48619">
        <ele>21.5</ele>
        <time>2021-12-04T13:16:00Z</time>
      </trkpt>
      <trkpt lat="49.22235" lon="-1.48616">
        <ele>21.5</ele>
        <time>2021-12-04T13:16:03Z</time>
      </trkpt>
      <trkpt lat="49.22239" lon="-1.48611">
        <ele>21.1</ele>
        <time>2021-12-04T13:16:06Z</time>
      </trkpt>
      <trkpt lat="49.22242" lon="-1.48605">
        <ele>20.7</ele>
        <time>2021-12-04T13:16:10Z</time>
      </trkpt>
      <trkpt lat="49.22247" lon="-1.48601">
        <ele>21.3</ele>
        <time>2021-12-04T13:16:17Z</time>
      </trkpt>
      <trkpt lat="49.2225" lon="-1.48596">
        <ele>21.7</ele>
        <time>2021-12-04T13:16:20Z</time>
      </trkpt>
      <trkpt lat="49.22246" lon="-1.48592">
        <ele>20.9</ele>
        <time>2021-12-04T13:16:36Z</time>
      </trkpt>
      <trkpt lat="49.22249" lon="-1.48585">
        <ele>20.1</ele>
        <time>2021-12-04T13:16:57Z</time>
      </trkpt>
      <trkpt lat="49.22252" lon="-1.4858">
        <ele>19.9</ele>
        <time>2021-12-04T13:17:00Z</time>
      </trkpt>
      <trkpt lat="49.22255" lon="-1.48573">
        <ele>19.5</ele>
        <time>2021-12-04T13:17:03Z</time>
      </trkpt>
      <trkpt lat="49.22259" lon="-1.48565">
        <ele>18.4</ele>
        <time>2021-12-04T13:17:07Z</time>
      </trkpt>
      <trkpt lat="49.22262" lon="-1.48558">
        <ele>17.4</ele>
        <time>2021-12-04T13:17:10Z</time>
      </trkpt>
      <trkpt lat="49.22273" lon="-1.48541">
        <ele>17.2</ele>
        <time>2021-12-04T13:17:17Z</time>
      </trkpt>
      <trkpt lat="49.22278" lon="-1.48536">
        <ele>17.3</ele>
        <time>2021-12-04T13:17:20Z</time>
      </trkpt>
      <trkpt lat="49.22283" lon="-1.4853">
        <ele>17.2</ele>
        <time>2021-12-04T13:17:23Z</time>
      </trkpt>
      <trkpt lat="49.22288" lon="-1.48524">
        <ele>16.7</ele>
        <time>2021-12-04T13:17:26Z</time>
      </trkpt>
      <trkpt lat="49.22292" lon="-1.48518">
        <ele>16.4</ele>
        <time>2021-12-04T13:17:29Z</time>
      </trkpt>
      <trkpt lat="49.22295" lon="-1.48513">
        <ele>15.8</ele>
        <time>2021-12-04T13:17:32Z</time>
      </trkpt>
      <trkpt lat="49.22299" lon="-1.48508">
        <ele>15.7</ele>
        <time>2021-12-04T13:17:36Z</time>
      </trkpt>
      <trkpt lat="49.22304" lon="-1.48508">
        <ele>16.4</ele>
        <time>2021-12-04T13:18:48Z</time>
      </trkpt>
      <trkpt lat="49.22308" lon="-1.48505">
        <ele>16.7</ele>
        <time>2021-12-04T13:18:53Z</time>
      </trkpt>
      <trkpt lat="49.22313" lon="-1.48502">
        <ele>16.8</ele>
        <time>2021-12-04T13:18:59Z</time>
      </trkpt>
      <trkpt lat="49.22318" lon="-1.48497">
        <ele>16.7</ele>
        <time>2021-12-04T13:19:03Z</time>
      </trkpt>
      <trkpt lat="49.22322" lon="-1.48496">
        <ele>16.7</ele>
        <time>2021-12-04T13:19:06Z</time>
      </trkpt>
      <trkpt lat="49.22328" lon="-1.48496">
        <ele>16.5</ele>
        <time>2021-12-04T13:19:09Z</time>
      </trkpt>
      <trkpt lat="49.22335" lon="-1.48495">
        <ele>16.4</ele>
        <time>2021-12-04T13:19:12Z</time>
      </trkpt>
      <trkpt lat="49.2234" lon="-1.48495">
        <ele>16.3</ele>
        <time>2021-12-04T13:19:14Z</time>
      </trkpt>
      <trkpt lat="49.22346" lon="-1.48494">
        <ele>16.2</ele>
        <time>2021-12-04T13:19:19Z</time>
      </trkpt>
      <trkpt lat="49.2235" lon="-1.48493">
        <ele>16.6</ele>
        <time>2021-12-04T13:19:23Z</time>
      </trkpt>
      <trkpt lat="49.22355" lon="-1.48493">
        <ele>16.8</ele>
        <time>2021-12-04T13:19:26Z</time>
      </trkpt>
      <trkpt lat="49.22359" lon="-1.48494">
        <ele>17.2</ele>
        <time>2021-12-04T13:19:31Z</time>
      </trkpt>
      <trkpt lat="49.22365" lon="-1.48486">
        <ele>17.5</ele>
        <time>2021-12-04T13:19:41Z</time>
      </trkpt>
      <trkpt lat="49.22367" lon="-1.4848">
        <ele>17.5</ele>
        <time>2021-12-04T13:19:45Z</time>
      </trkpt>
      <trkpt lat="49.22368" lon="-1.48472">
        <ele>18.2</ele>
        <time>2021-12-04T13:19:59Z</time>
      </trkpt>
      <trkpt lat="49.22372" lon="-1.48466">
        <ele>18.2</ele>
        <time>2021-12-04T13:20:05Z</time>
      </trkpt>
      <trkpt lat="49.22375" lon="-1.48459">
        <ele>17.9</ele>
        <time>2021-12-04T13:20:09Z</time>
      </trkpt>
      <trkpt lat="49.22373" lon="-1.4845">
        <ele>17.8</ele>
        <time>2021-12-04T13:20:16Z</time>
      </trkpt>
      <trkpt lat="49.2237" lon="-1.4844">
        <ele>16.5</ele>
        <time>2021-12-04T13:20:27Z</time>
      </trkpt>
      <trkpt lat="49.22369" lon="-1.48432">
        <ele>16.7</ele>
        <time>2021-12-04T13:20:31Z</time>
      </trkpt>
      <trkpt lat="49.22369" lon="-1.48425">
        <ele>16.6</ele>
        <time>2021-12-04T13:20:35Z</time>
      </trkpt>
      <trkpt lat="49.22366" lon="-1.4842">
        <ele>16.7</ele>
        <time>2021-12-04T13:20:37Z</time>
      </trkpt>
      <trkpt lat="49.22364" lon="-1.48414">
        <ele>17.5</ele>
        <time>2021-12-04T13:20:41Z</time>
      </trkpt>
      <trkpt lat="49.22363" lon="-1.48407">
        <ele>18.4</ele>
        <time>2021-12-04T13:20:45Z</time>
      </trkpt>
      <trkpt lat="49.22363" lon="-1.48396">
        <ele>19.2</ele>
        <time>2021-12-04T13:20:50Z</time>
      </trkpt>
      <trkpt lat="49.22364" lon="-1.48385">
        <ele>19.9</ele>
        <time>2021-12-04T13:20:55Z</time>
      </trkpt>
      <trkpt lat="49.22363" lon="-1.48378">
        <ele>20.6</ele>
        <time>2021-12-04T13:20:58Z</time>
      </trkpt>
      <trkpt lat="49.22363" lon="-1.48371">
        <ele>21.1</ele>
        <time>2021-12-04T13:21:02Z</time>
      </trkpt>
      <trkpt lat="49.22364" lon="-1.48364">
        <ele>21.2</ele>
        <time>2021-12-04T13:21:05Z</time>
      </trkpt>
      <trkpt lat="49.22361" lon="-1.48353">
        <ele>21.3</ele>
        <time>2021-12-04T13:21:10Z</time>
      </trkpt>
      <trkpt lat="49.22361" lon="-1.48343">
        <ele>21.3</ele>
        <time>2021-12-04T13:21:12Z</time>
      </trkpt>
      <trkpt lat="49.2236" lon="-1.48332">
        <ele>21.1</ele>
        <time>2021-12-04T13:21:15Z</time>
      </trkpt>
      <trkpt lat="49.22359" lon="-1.48323">
        <ele>20.8</ele>
        <time>2021-12-04T13:21:18Z</time>
      </trkpt>
      <trkpt lat="49.22358" lon="-1.48316">
        <ele>20.4</ele>
        <time>2021-12-04T13:21:21Z</time>
      </trkpt>
      <trkpt lat="49.22359" lon="-1.48307">
        <ele>19.7</ele>
        <time>2021-12-04T13:21:25Z</time>
      </trkpt>
      <trkpt lat="49.22359" lon="-1.483">
        <ele>19.1</ele>
        <time>2021-12-04T13:21:29Z</time>
      </trkpt>
      <trkpt lat="49.22365" lon="-1.48303">
        <ele>18.9</ele>
        <time>2021-12-04T13:21:46Z</time>
      </trkpt>
      <trkpt lat="49.2237" lon="-1.48309">
        <ele>18.8</ele>
        <time>2021-12-04T13:21:50Z</time>
      </trkpt>
      <trkpt lat="49.22375" lon="-1.48317">
        <ele>18.9</ele>
        <time>2021-12-04T13:21:52Z</time>
      </trkpt>
      <trkpt lat="49.22379" lon="-1.48322">
        <ele>19.3</ele>
        <time>2021-12-04T13:21:55Z</time>
      </trkpt>
      <trkpt lat="49.22383" lon="-1.48327">
        <ele>20</ele>
        <time>2021-12-04T13:21:59Z</time>
      </trkpt>
      <trkpt lat="49.22387" lon="-1.48332">
        <ele>20.6</ele>
        <time>2021-12-04T13:22:02Z</time>
      </trkpt>
      <trkpt lat="49.22391" lon="-1.48337">
        <ele>20.9</ele>
        <time>2021-12-04T13:22:06Z</time>
      </trkpt>
      <trkpt lat="49.22395" lon="-1.48342">
        <ele>21.3</ele>
        <time>2021-12-04T13:22:09Z</time>
      </trkpt>
      <trkpt lat="49.22399" lon="-1.48348">
        <ele>21.7</ele>
        <time>2021-12-04T13:22:13Z</time>
      </trkpt>
      <trkpt lat="49.22402" lon="-1.48354">
        <ele>22.1</ele>
        <time>2021-12-04T13:22:16Z</time>
      </trkpt>
      <trkpt lat="49.22405" lon="-1.48359">
        <ele>22.2</ele>
        <time>2021-12-04T13:22:19Z</time>
      </trkpt>
      <trkpt lat="49.2241" lon="-1.48362">
        <ele>22.3</ele>
        <time>2021-12-04T13:22:24Z</time>
      </trkpt>
      <trkpt lat="49.22416" lon="-1.48364">
        <ele>22.4</ele>
        <time>2021-12-04T13:22:27Z</time>
      </trkpt>
      <trkpt lat="49.2242" lon="-1.48369">
        <ele>22.6</ele>
        <time>2021-12-04T13:22:31Z</time>
      </trkpt>
      <trkpt lat="49.22423" lon="-1.48374">
        <ele>23</ele>
        <time>2021-12-04T13:22:35Z</time>
      </trkpt>
      <trkpt lat="49.22428" lon="-1.48378">
        <ele>23.3</ele>
        <time>2021-12-04T13:22:39Z</time>
      </trkpt>
      <trkpt lat="49.22433" lon="-1.48384">
        <ele>23.3</ele>
        <time>2021-12-04T13:22:43Z</time>
      </trkpt>
      <trkpt lat="49.22437" lon="-1.4839">
        <ele>23.2</ele>
        <time>2021-12-04T13:22:45Z</time>
      </trkpt>
      <trkpt lat="49.22442" lon="-1.48395">
        <ele>22.3</ele>
        <time>2021-12-04T13:22:48Z</time>
      </trkpt>
      <trkpt lat="49.22446" lon="-1.48399">
        <ele>21</ele>
        <time>2021-12-04T13:22:53Z</time>
      </trkpt>
      <trkpt lat="49.22452" lon="-1.484">
        <ele>19.7</ele>
        <time>2021-12-04T13:23:00Z</time>
      </trkpt>
      <trkpt lat="49.22458" lon="-1.48398">
        <ele>18.8</ele>
        <time>2021-12-04T13:23:04Z</time>
      </trkpt>
      <trkpt lat="49.2249" lon="-1.48357">
        <ele>16.2</ele>
        <time>2021-12-04T13:23:19Z</time>
      </trkpt>
      <trkpt lat="49.22493" lon="-1.4835">
        <ele>18.6</ele>
        <time>2021-12-04T13:23:28Z</time>
      </trkpt>
      <trkpt lat="49.22495" lon="-1.48341">
        <ele>19.4</ele>
        <time>2021-12-04T13:23:39Z</time>
      </trkpt>
      <trkpt lat="49.22496" lon="-1.48327">
        <ele>19.5</ele>
        <time>2021-12-04T13:24:02Z</time>
      </trkpt>
      <trkpt lat="49.22493" lon="-1.48319">
        <ele>17.3</ele>
        <time>2021-12-04T13:24:07Z</time>
      </trkpt>
      <trkpt lat="49.22491" lon="-1.48311">
        <ele>15.1</ele>
        <time>2021-12-04T13:24:11Z</time>
      </trkpt>
      <trkpt lat="49.2249" lon="-1.48303">
        <ele>13.5</ele>
        <time>2021-12-04T13:24:14Z</time>
      </trkpt>
      <trkpt lat="49.2249" lon="-1.48295">
        <ele>13.8</ele>
        <time>2021-12-04T13:24:18Z</time>
      </trkpt>
      <trkpt lat="49.2249" lon="-1.48288">
        <ele>14.5</ele>
        <time>2021-12-04T13:24:23Z</time>
      </trkpt>
      <trkpt lat="49.22491" lon="-1.48281">
        <ele>14.9</ele>
        <time>2021-12-04T13:24:27Z</time>
      </trkpt>
      <trkpt lat="49.22491" lon="-1.48273">
        <ele>15.8</ele>
        <time>2021-12-04T13:24:33Z</time>
      </trkpt>
      <trkpt lat="49.22489" lon="-1.48265">
        <ele>17.4</ele>
        <time>2021-12-04T13:24:38Z</time>
      </trkpt>
      <trkpt lat="49.22489" lon="-1.48257">
        <ele>17.9</ele>
        <time>2021-12-04T13:24:41Z</time>
      </trkpt>
      <trkpt lat="49.22489" lon="-1.48249">
        <ele>17.8</ele>
        <time>2021-12-04T13:24:45Z</time>
      </trkpt>
      <trkpt lat="49.22488" lon="-1.48242">
        <ele>17.7</ele>
        <time>2021-12-04T13:24:49Z</time>
      </trkpt>
      <trkpt lat="49.22487" lon="-1.48232">
        <ele>17.6</ele>
        <time>2021-12-04T13:24:53Z</time>
      </trkpt>
      <trkpt lat="49.22485" lon="-1.48225">
        <ele>17.2</ele>
        <time>2021-12-04T13:24:56Z</time>
      </trkpt>
      <trkpt lat="49.22483" lon="-1.48218">
        <ele>16.8</ele>
        <time>2021-12-04T13:25:00Z</time>
      </trkpt>
      <trkpt lat="49.22482" lon="-1.4821">
        <ele>16.6</ele>
        <time>2021-12-04T13:25:03Z</time>
      </trkpt>
      <trkpt lat="49.22481" lon="-1.48202">
        <ele>16.7</ele>
        <time>2021-12-04T13:25:08Z</time>
      </trkpt>
      <trkpt lat="49.22482" lon="-1.48195">
        <ele>17.3</ele>
        <time>2021-12-04T13:25:17Z</time>
      </trkpt>
      <trkpt lat="49.22483" lon="-1.48188">
        <ele>16.8</ele>
        <time>2021-12-04T13:25:29Z</time>
      </trkpt>
      <trkpt lat="49.22482" lon="-1.48177">
        <ele>16.6</ele>
        <time>2021-12-04T13:25:32Z</time>
      </trkpt>
      <trkpt lat="49.22481" lon="-1.48169">
        <ele>16.4</ele>
        <time>2021-12-04T13:25:35Z</time>
      </trkpt>
      <trkpt lat="49.2248" lon="-1.48161">
        <ele>16.3</ele>
        <time>2021-12-04T13:25:36Z</time>
      </trkpt>
      <trkpt lat="49.22478" lon="-1.4815">
        <ele>16.1</ele>
        <time>2021-12-04T13:25:39Z</time>
      </trkpt>
      <trkpt lat="49.22477" lon="-1.4814">
        <ele>15.8</ele>
        <time>2021-12-04T13:25:43Z</time>
      </trkpt>
      <trkpt lat="49.22476" lon="-1.48131">
        <ele>15.4</ele>
        <time>2021-12-04T13:25:47Z</time>
      </trkpt>
      <trkpt lat="49.22473" lon="-1.48124">
        <ele>14.2</ele>
        <time>2021-12-04T13:25:52Z</time>
      </trkpt>
      <trkpt lat="49.22473" lon="-1.48116">
        <ele>14</ele>
        <time>2021-12-04T13:25:57Z</time>
      </trkpt>
      <trkpt lat="49.22472" lon="-1.48109">
        <ele>14.4</ele>
        <time>2021-12-04T13:26:04Z</time>
      </trkpt>
      <trkpt lat="49.2247" lon="-1.48101">
        <ele>14.4</ele>
        <time>2021-12-04T13:26:12Z</time>
      </trkpt>
      <trkpt lat="49.22471" lon="-1.48093">
        <ele>14.5</ele>
        <time>2021-12-04T13:26:18Z</time>
      </trkpt>
      <trkpt lat="49.2247" lon="-1.48082">
        <ele>14.5</ele>
        <time>2021-12-04T13:26:22Z</time>
      </trkpt>
      <trkpt lat="49.2247" lon="-1.48071">
        <ele>14.5</ele>
        <time>2021-12-04T13:26:26Z</time>
      </trkpt>
      <trkpt lat="49.22469" lon="-1.48063">
        <ele>14.5</ele>
        <time>2021-12-04T13:26:29Z</time>
      </trkpt>
      <trkpt lat="49.22466" lon="-1.48056">
        <ele>14.5</ele>
        <time>2021-12-04T13:26:35Z</time>
      </trkpt>
      <trkpt lat="49.22465" lon="-1.48048">
        <ele>14.1</ele>
        <time>2021-12-04T13:26:46Z</time>
      </trkpt>
      <trkpt lat="49.22466" lon="-1.48041">
        <ele>13.2</ele>
        <time>2021-12-04T13:26:58Z</time>
      </trkpt>
      <trkpt lat="49.22466" lon="-1.48032">
        <ele>12.9</ele>
        <time>2021-12-04T13:27:06Z</time>
      </trkpt>
      <trkpt lat="49.22465" lon="-1.48023">
        <ele>12.8</ele>
        <time>2021-12-04T13:27:09Z</time>
      </trkpt>
      <trkpt lat="49.22465" lon="-1.48011">
        <ele>12.6</ele>
        <time>2021-12-04T13:27:14Z</time>
      </trkpt>
      <trkpt lat="49.22462" lon="-1.48">
        <ele>14.3</ele>
        <time>2021-12-04T13:27:39Z</time>
      </trkpt>
      <trkpt lat="49.22461" lon="-1.47989">
        <ele>14.3</ele>
        <time>2021-12-04T13:27:42Z</time>
      </trkpt>
      <trkpt lat="49.22461" lon="-1.4798">
        <ele>14.4</ele>
        <time>2021-12-04T13:27:47Z</time>
      </trkpt>
      <trkpt lat="49.2246" lon="-1.47971">
        <ele>14.5</ele>
        <time>2021-12-04T13:27:51Z</time>
      </trkpt>
      <trkpt lat="49.2246" lon="-1.47963">
        <ele>15.1</ele>
        <time>2021-12-04T13:28:01Z</time>
      </trkpt>
      <trkpt lat="49.22459" lon="-1.47955">
        <ele>15.3</ele>
        <time>2021-12-04T13:28:04Z</time>
      </trkpt>
      <trkpt lat="49.22458" lon="-1.47945">
        <ele>15.5</ele>
        <time>2021-12-04T13:28:07Z</time>
      </trkpt>
      <trkpt lat="49.22456" lon="-1.47937">
        <ele>15.4</ele>
        <time>2021-12-04T13:28:11Z</time>
      </trkpt>
      <trkpt lat="49.22454" lon="-1.4793">
        <ele>15.1</ele>
        <time>2021-12-04T13:28:15Z</time>
      </trkpt>
      <trkpt lat="49.22456" lon="-1.47922">
        <ele>15</ele>
        <time>2021-12-04T13:28:20Z</time>
      </trkpt>
      <trkpt lat="49.22455" lon="-1.47915">
        <ele>15.6</ele>
        <time>2021-12-04T13:28:35Z</time>
      </trkpt>
      <trkpt lat="49.22456" lon="-1.47906">
        <ele>15.4</ele>
        <time>2021-12-04T13:28:46Z</time>
      </trkpt>
      <trkpt lat="49.22456" lon="-1.47899">
        <ele>15.3</ele>
        <time>2021-12-04T13:28:53Z</time>
      </trkpt>
      <trkpt lat="49.22452" lon="-1.47893">
        <ele>15.5</ele>
        <time>2021-12-04T13:28:58Z</time>
      </trkpt>
      <trkpt lat="49.22451" lon="-1.47886">
        <ele>15.7</ele>
        <time>2021-12-04T13:29:02Z</time>
      </trkpt>
      <trkpt lat="49.22452" lon="-1.47878">
        <ele>16.8</ele>
        <time>2021-12-04T13:29:19Z</time>
      </trkpt>
      <trkpt lat="49.22451" lon="-1.4787">
        <ele>16.8</ele>
        <time>2021-12-04T13:29:22Z</time>
      </trkpt>
      <trkpt lat="49.22451" lon="-1.47863">
        <ele>16.9</ele>
        <time>2021-12-04T13:29:25Z</time>
      </trkpt>
      <trkpt lat="49.22453" lon="-1.47856">
        <ele>16.6</ele>
        <time>2021-12-04T13:29:43Z</time>
      </trkpt>
      <trkpt lat="49.22453" lon="-1.47849">
        <ele>16.9</ele>
        <time>2021-12-04T13:29:49Z</time>
      </trkpt>
      <trkpt lat="49.22455" lon="-1.47842">
        <ele>17.6</ele>
        <time>2021-12-04T13:29:54Z</time>
      </trkpt>
      <trkpt lat="49.22455" lon="-1.47835">
        <ele>18.4</ele>
        <time>2021-12-04T13:30:01Z</time>
      </trkpt>
      <trkpt lat="49.22456" lon="-1.47826">
        <ele>18.4</ele>
        <time>2021-12-04T13:30:05Z</time>
      </trkpt>
      <trkpt lat="49.22458" lon="-1.4782">
        <ele>18.2</ele>
        <time>2021-12-04T13:30:10Z</time>
      </trkpt>
      <trkpt lat="49.22459" lon="-1.47813">
        <ele>18.2</ele>
        <time>2021-12-04T13:30:12Z</time>
      </trkpt>
      <trkpt lat="49.22458" lon="-1.47806">
        <ele>18.3</ele>
        <time>2021-12-04T13:30:15Z</time>
      </trkpt>
      <trkpt lat="49.22457" lon="-1.47798">
        <ele>18.6</ele>
        <time>2021-12-04T13:30:19Z</time>
      </trkpt>
      <trkpt lat="49.22457" lon="-1.47791">
        <ele>18.8</ele>
        <time>2021-12-04T13:30:24Z</time>
      </trkpt>
      <trkpt lat="49.22457" lon="-1.47783">
        <ele>19.5</ele>
        <time>2021-12-04T13:30:28Z</time>
      </trkpt>
      <trkpt lat="49.22455" lon="-1.47776">
        <ele>20.6</ele>
        <time>2021-12-04T13:30:34Z</time>
      </trkpt>
      <trkpt lat="49.22455" lon="-1.47768">
        <ele>20.6</ele>
        <time>2021-12-04T13:30:37Z</time>
      </trkpt>
      <trkpt lat="49.22456" lon="-1.4776">
        <ele>20.3</ele>
        <time>2021-12-04T13:30:42Z</time>
      </trkpt>
      <trkpt lat="49.22456" lon="-1.47752">
        <ele>20.1</ele>
        <time>2021-12-04T13:30:50Z</time>
      </trkpt>
      <trkpt lat="49.22457" lon="-1.47744">
        <ele>20</ele>
        <time>2021-12-04T13:30:54Z</time>
      </trkpt>
      <trkpt lat="49.2246" lon="-1.47737">
        <ele>19.9</ele>
        <time>2021-12-04T13:30:58Z</time>
      </trkpt>
      <trkpt lat="49.22459" lon="-1.47729">
        <ele>19.4</ele>
        <time>2021-12-04T13:31:03Z</time>
      </trkpt>
      <trkpt lat="49.22457" lon="-1.47722">
        <ele>19.2</ele>
        <time>2021-12-04T13:31:08Z</time>
      </trkpt>
      <trkpt lat="49.22458" lon="-1.47715">
        <ele>18.9</ele>
        <time>2021-12-04T13:31:13Z</time>
      </trkpt>
      <trkpt lat="49.2246" lon="-1.47706">
        <ele>18.5</ele>
        <time>2021-12-04T13:31:17Z</time>
      </trkpt>
      <trkpt lat="49.22462" lon="-1.47697">
        <ele>18.9</ele>
        <time>2021-12-04T13:31:24Z</time>
      </trkpt>
      <trkpt lat="49.22464" lon="-1.47689">
        <ele>19.8</ele>
        <time>2021-12-04T13:31:29Z</time>
      </trkpt>
      <trkpt lat="49.22459" lon="-1.47691">
        <ele>21.2</ele>
        <time>2021-12-04T13:31:46Z</time>
      </trkpt>
      <trkpt lat="49.22455" lon="-1.47697">
        <ele>21.1</ele>
        <time>2021-12-04T13:31:54Z</time>
      </trkpt>
      <trkpt lat="49.22461" lon="-1.47698">
        <ele>20.7</ele>
        <time>2021-12-04T13:32:02Z</time>
      </trkpt>
      <trkpt lat="49.22462" lon="-1.4769">
        <ele>20.4</ele>
        <time>2021-12-04T13:32:20Z</time>
      </trkpt>
      <trkpt lat="49.2246" lon="-1.47683">
        <ele>20.4</ele>
        <time>2021-12-04T13:32:25Z</time>
      </trkpt>
      <trkpt lat="49.22458" lon="-1.47677">
        <ele>20.2</ele>
        <time>2021-12-04T13:32:43Z</time>
      </trkpt>
      <trkpt lat="49.22456" lon="-1.47669">
        <ele>20.2</ele>
        <time>2021-12-04T13:32:55Z</time>
      </trkpt>
      <trkpt lat="49.22455" lon="-1.47662">
        <ele>20.2</ele>
        <time>2021-12-04T13:32:59Z</time>
      </trkpt>
      <trkpt lat="49.22455" lon="-1.47655">
        <ele>20</ele>
        <time>2021-12-04T13:33:01Z</time>
      </trkpt>
      <trkpt lat="49.22455" lon="-1.47647">
        <ele>19.7</ele>
        <time>2021-12-04T13:33:04Z</time>
      </trkpt>
      <trkpt lat="49.22456" lon="-1.47639">
        <ele>19.4</ele>
        <time>2021-12-04T13:33:06Z</time>
      </trkpt>
      <trkpt lat="49.22455" lon="-1.47632">
        <ele>19.2</ele>
        <time>2021-12-04T13:33:08Z</time>
      </trkpt>
      <trkpt lat="49.22455" lon="-1.47624">
        <ele>19.2</ele>
        <time>2021-12-04T13:33:12Z</time>
      </trkpt>
      <trkpt lat="49.22454" lon="-1.47616">
        <ele>19.6</ele>
        <time>2021-12-04T13:33:15Z</time>
      </trkpt>
      <trkpt lat="49.22454" lon="-1.47609">
        <ele>20.5</ele>
        <time>2021-12-04T13:33:19Z</time>
      </trkpt>
      <trkpt lat="49.22452" lon="-1.47602">
        <ele>21.3</ele>
        <time>2021-12-04T13:33:23Z</time>
      </trkpt>
      <trkpt lat="49.22451" lon="-1.47594">
        <ele>22</ele>
        <time>2021-12-04T13:33:26Z</time>
      </trkpt>
      <trkpt lat="49.2245" lon="-1.47585">
        <ele>22.6</ele>
        <time>2021-12-04T13:33:32Z</time>
      </trkpt>
      <trkpt lat="49.22449" lon="-1.47577">
        <ele>23.2</ele>
        <time>2021-12-04T13:33:37Z</time>
      </trkpt>
      <trkpt lat="49.22449" lon="-1.4757">
        <ele>23.3</ele>
        <time>2021-12-04T13:33:41Z</time>
      </trkpt>
      <trkpt lat="49.2245" lon="-1.4756">
        <ele>23.4</ele>
        <time>2021-12-04T13:33:47Z</time>
      </trkpt>
      <trkpt lat="49.22449" lon="-1.47552">
        <ele>23.4</ele>
        <time>2021-12-04T13:33:51Z</time>
      </trkpt>
      <trkpt lat="49.22447" lon="-1.47544">
        <ele>23.6</ele>
        <time>2021-12-04T13:33:54Z</time>
      </trkpt>
      <trkpt lat="49.22445" lon="-1.47537">
        <ele>24.1</ele>
        <time>2021-12-04T13:33:58Z</time>
      </trkpt>
      <trkpt lat="49.22444" lon="-1.47529">
        <ele>25.1</ele>
        <time>2021-12-04T13:34:02Z</time>
      </trkpt>
      <trkpt lat="49.22443" lon="-1.47521">
        <ele>26.1</ele>
        <time>2021-12-04T13:34:07Z</time>
      </trkpt>
      <trkpt lat="49.22435" lon="-1.47519">
        <ele>26.5</ele>
        <time>2021-12-04T13:34:12Z</time>
      </trkpt>
      <trkpt lat="49.2243" lon="-1.47517">
        <ele>26.6</ele>
        <time>2021-12-04T13:34:15Z</time>
      </trkpt>
      <trkpt lat="49.22424" lon="-1.47515">
        <ele>26.6</ele>
        <time>2021-12-04T13:34:19Z</time>
      </trkpt>
      <trkpt lat="49.22417" lon="-1.47516">
        <ele>26.6</ele>
        <time>2021-12-04T13:34:25Z</time>
      </trkpt>
      <trkpt lat="49.22412" lon="-1.47519">
        <ele>26.6</ele>
        <time>2021-12-04T13:34:28Z</time>
      </trkpt>
      <trkpt lat="49.22408" lon="-1.47522">
        <ele>26.5</ele>
        <time>2021-12-04T13:34:32Z</time>
      </trkpt>
      <trkpt lat="49.22403" lon="-1.47525">
        <ele>26.5</ele>
        <time>2021-12-04T13:34:36Z</time>
      </trkpt>
      <trkpt lat="49.22398" lon="-1.47528">
        <ele>26.5</ele>
        <time>2021-12-04T13:34:39Z</time>
      </trkpt>
      <trkpt lat="49.22393" lon="-1.4753">
        <ele>26.5</ele>
        <time>2021-12-04T13:34:43Z</time>
      </trkpt>
      <trkpt lat="49.22388" lon="-1.47529">
        <ele>26.5</ele>
        <time>2021-12-04T13:34:48Z</time>
      </trkpt>
      <trkpt lat="49.22383" lon="-1.47531">
        <ele>26.3</ele>
        <time>2021-12-04T13:34:54Z</time>
      </trkpt>
      <trkpt lat="49.22379" lon="-1.47535">
        <ele>26.2</ele>
        <time>2021-12-04T13:34:57Z</time>
      </trkpt>
      <trkpt lat="49.22378" lon="-1.47544">
        <ele>26.1</ele>
        <time>2021-12-04T13:35:02Z</time>
      </trkpt>
      <trkpt lat="49.22377" lon="-1.47551">
        <ele>26</ele>
        <time>2021-12-04T13:35:04Z</time>
      </trkpt>
      <trkpt lat="49.22376" lon="-1.4756">
        <ele>25.7</ele>
        <time>2021-12-04T13:35:09Z</time>
      </trkpt>
      <trkpt lat="49.22373" lon="-1.47566">
        <ele>25.5</ele>
        <time>2021-12-04T13:35:12Z</time>
      </trkpt>
      <trkpt lat="49.22368" lon="-1.47571">
        <ele>25.4</ele>
        <time>2021-12-04T13:35:17Z</time>
      </trkpt>
      <trkpt lat="49.22366" lon="-1.47581">
        <ele>25.3</ele>
        <time>2021-12-04T13:35:22Z</time>
      </trkpt>
      <trkpt lat="49.22366" lon="-1.47588">
        <ele>25.2</ele>
        <time>2021-12-04T13:35:26Z</time>
      </trkpt>
      <trkpt lat="49.22365" lon="-1.47597">
        <ele>24.9</ele>
        <time>2021-12-04T13:35:30Z</time>
      </trkpt>
      <trkpt lat="49.22364" lon="-1.47603">
        <ele>24.5</ele>
        <time>2021-12-04T13:35:33Z</time>
      </trkpt>
      <trkpt lat="49.22362" lon="-1.47611">
        <ele>24.1</ele>
        <time>2021-12-04T13:35:37Z</time>
      </trkpt>
      <trkpt lat="49.22357" lon="-1.47618">
        <ele>23.7</ele>
        <time>2021-12-04T13:35:42Z</time>
      </trkpt>
      <trkpt lat="49.22352" lon="-1.47623">
        <ele>23.4</ele>
        <time>2021-12-04T13:35:46Z</time>
      </trkpt>
      <trkpt lat="49.22349" lon="-1.47628">
        <ele>23</ele>
        <time>2021-12-04T13:35:49Z</time>
      </trkpt>
      <trkpt lat="49.22344" lon="-1.47635">
        <ele>22.4</ele>
        <time>2021-12-04T13:35:55Z</time>
      </trkpt>
      <trkpt lat="49.22339" lon="-1.47637">
        <ele>21.9</ele>
        <time>2021-12-04T13:36:01Z</time>
      </trkpt>
      <trkpt lat="49.22335" lon="-1.47643">
        <ele>21.2</ele>
        <time>2021-12-04T13:36:05Z</time>
      </trkpt>
      <trkpt lat="49.22332" lon="-1.47649">
        <ele>20.8</ele>
        <time>2021-12-04T13:36:08Z</time>
      </trkpt>
      <trkpt lat="49.22328" lon="-1.47654">
        <ele>20.3</ele>
        <time>2021-12-04T13:36:12Z</time>
      </trkpt>
      <trkpt lat="49.22323" lon="-1.47657">
        <ele>20</ele>
        <time>2021-12-04T13:36:15Z</time>
      </trkpt>
      <trkpt lat="49.22319" lon="-1.47661">
        <ele>19.6</ele>
        <time>2021-12-04T13:36:19Z</time>
      </trkpt>
      <trkpt lat="49.22314" lon="-1.47664">
        <ele>19.3</ele>
        <time>2021-12-04T13:36:23Z</time>
      </trkpt>
      <trkpt lat="49.22308" lon="-1.47669">
        <ele>18.9</ele>
        <time>2021-12-04T13:36:28Z</time>
      </trkpt>
      <trkpt lat="49.22303" lon="-1.47671">
        <ele>18.4</ele>
        <time>2021-12-04T13:36:31Z</time>
      </trkpt>
      <trkpt lat="49.22299" lon="-1.47671">
        <ele>18</ele>
        <time>2021-12-04T13:36:35Z</time>
      </trkpt>
      <trkpt lat="49.22293" lon="-1.47667">
        <ele>17.6</ele>
        <time>2021-12-04T13:36:39Z</time>
      </trkpt>
      <trkpt lat="49.22289" lon="-1.47663">
        <ele>17.4</ele>
        <time>2021-12-04T13:36:42Z</time>
      </trkpt>
      <trkpt lat="49.22283" lon="-1.47658">
        <ele>17.3</ele>
        <time>2021-12-04T13:36:47Z</time>
      </trkpt>
      <trkpt lat="49.22279" lon="-1.47654">
        <ele>17.3</ele>
        <time>2021-12-04T13:36:51Z</time>
      </trkpt>
      <trkpt lat="49.22275" lon="-1.47651">
        <ele>17.3</ele>
        <time>2021-12-04T13:36:54Z</time>
      </trkpt>
      <trkpt lat="49.22271" lon="-1.47648">
        <ele>17.3</ele>
        <time>2021-12-04T13:36:58Z</time>
      </trkpt>
      <trkpt lat="49.22267" lon="-1.47645">
        <ele>17.4</ele>
        <time>2021-12-04T13:37:02Z</time>
      </trkpt>
      <trkpt lat="49.22263" lon="-1.47641">
        <ele>17.3</ele>
        <time>2021-12-04T13:37:05Z</time>
      </trkpt>
      <trkpt lat="49.22258" lon="-1.47636">
        <ele>17.1</ele>
        <time>2021-12-04T13:37:10Z</time>
      </trkpt>
      <trkpt lat="49.22253" lon="-1.47631">
        <ele>16.9</ele>
        <time>2021-12-04T13:37:13Z</time>
      </trkpt>
      <trkpt lat="49.22248" lon="-1.47625">
        <ele>16.7</ele>
        <time>2021-12-04T13:37:17Z</time>
      </trkpt>
      <trkpt lat="49.22243" lon="-1.47619">
        <ele>16.7</ele>
        <time>2021-12-04T13:37:23Z</time>
      </trkpt>
      <trkpt lat="49.22239" lon="-1.47614">
        <ele>16.6</ele>
        <time>2021-12-04T13:37:27Z</time>
      </trkpt>
      <trkpt lat="49.22234" lon="-1.4761">
        <ele>16.6</ele>
        <time>2021-12-04T13:37:31Z</time>
      </trkpt>
      <trkpt lat="49.2223" lon="-1.47603">
        <ele>16.7</ele>
        <time>2021-12-04T13:37:35Z</time>
      </trkpt>
      <trkpt lat="49.22231" lon="-1.47594">
        <ele>17.1</ele>
        <time>2021-12-04T13:37:44Z</time>
      </trkpt>
      <trkpt lat="49.22231" lon="-1.47586">
        <ele>17.1</ele>
        <time>2021-12-04T13:37:48Z</time>
      </trkpt>
      <trkpt lat="49.22231" lon="-1.47579">
        <ele>17.1</ele>
        <time>2021-12-04T13:37:51Z</time>
      </trkpt>
      <trkpt lat="49.22231" lon="-1.47569">
        <ele>17</ele>
        <time>2021-12-04T13:37:56Z</time>
      </trkpt>
      <trkpt lat="49.2223" lon="-1.47562">
        <ele>16.9</ele>
        <time>2021-12-04T13:38:00Z</time>
      </trkpt>
      <trkpt lat="49.22227" lon="-1.47556">
        <ele>16.4</ele>
        <time>2021-12-04T13:38:03Z</time>
      </trkpt>
      <trkpt lat="49.22222" lon="-1.47548">
        <ele>16</ele>
        <time>2021-12-04T13:38:08Z</time>
      </trkpt>
      <trkpt lat="49.22218" lon="-1.47545">
        <ele>15.7</ele>
        <time>2021-12-04T13:38:11Z</time>
      </trkpt>
      <trkpt lat="49.22214" lon="-1.47542">
        <ele>15.6</ele>
        <time>2021-12-04T13:38:14Z</time>
      </trkpt>
      <trkpt lat="49.22208" lon="-1.47538">
        <ele>15.4</ele>
        <time>2021-12-04T13:38:19Z</time>
      </trkpt>
      <trkpt lat="49.22203" lon="-1.47534">
        <ele>15.2</ele>
        <time>2021-12-04T13:38:22Z</time>
      </trkpt>
      <trkpt lat="49.22199" lon="-1.47531">
        <ele>15.1</ele>
        <time>2021-12-04T13:38:25Z</time>
      </trkpt>
      <trkpt lat="49.22193" lon="-1.4753">
        <ele>14.9</ele>
        <time>2021-12-04T13:38:30Z</time>
      </trkpt>
      <trkpt lat="49.22187" lon="-1.47529">
        <ele>14.6</ele>
        <time>2021-12-04T13:38:33Z</time>
      </trkpt>
      <trkpt lat="49.22182" lon="-1.47531">
        <ele>14.1</ele>
        <time>2021-12-04T13:38:37Z</time>
      </trkpt>
      <trkpt lat="49.22177" lon="-1.4753">
        <ele>13.6</ele>
        <time>2021-12-04T13:38:40Z</time>
      </trkpt>
      <trkpt lat="49.22173" lon="-1.47524">
        <ele>13.2</ele>
        <time>2021-12-04T13:38:44Z</time>
      </trkpt>
      <trkpt lat="49.22169" lon="-1.47518">
        <ele>13.1</ele>
        <time>2021-12-04T13:38:48Z</time>
      </trkpt>
      <trkpt lat="49.22166" lon="-1.4751">
        <ele>13.2</ele>
        <time>2021-12-04T13:38:52Z</time>
      </trkpt>
      <trkpt lat="49.22162" lon="-1.47504">
        <ele>13.1</ele>
        <time>2021-12-04T13:38:55Z</time>
      </trkpt>
      <trkpt lat="49.22159" lon="-1.47499">
        <ele>13.1</ele>
        <time>2021-12-04T13:38:59Z</time>
      </trkpt>
      <trkpt lat="49.22156" lon="-1.47492">
        <ele>13.1</ele>
        <time>2021-12-04T13:39:03Z</time>
      </trkpt>
      <trkpt lat="49.22152" lon="-1.47486">
        <ele>13.1</ele>
        <time>2021-12-04T13:39:07Z</time>
      </trkpt>
      <trkpt lat="49.22148" lon="-1.4748">
        <ele>13.1</ele>
        <time>2021-12-04T13:39:11Z</time>
      </trkpt>
      <trkpt lat="49.22146" lon="-1.47474">
        <ele>13</ele>
        <time>2021-12-04T13:39:15Z</time>
      </trkpt>
      <trkpt lat="49.22143" lon="-1.47468">
        <ele>13</ele>
        <time>2021-12-04T13:39:19Z</time>
      </trkpt>
      <trkpt lat="49.2214" lon="-1.47462">
        <ele>12.9</ele>
        <time>2021-12-04T13:39:22Z</time>
      </trkpt>
      <trkpt lat="49.22137" lon="-1.47455">
        <ele>12.9</ele>
        <time>2021-12-04T13:39:26Z</time>
      </trkpt>
      <trkpt lat="49.22135" lon="-1.47448">
        <ele>12.8</ele>
        <time>2021-12-04T13:39:29Z</time>
      </trkpt>
      <trkpt lat="49.22133" lon="-1.47441">
        <ele>12.8</ele>
        <time>2021-12-04T13:39:32Z</time>
      </trkpt>
      <trkpt lat="49.22131" lon="-1.47434">
        <ele>12.7</ele>
        <time>2021-12-04T13:39:36Z</time>
      </trkpt>
      <trkpt lat="49.22129" lon="-1.47428">
        <ele>12.7</ele>
        <time>2021-12-04T13:39:40Z</time>
      </trkpt>
      <trkpt lat="49.22126" lon="-1.47422">
        <ele>12.5</ele>
        <time>2021-12-04T13:39:55Z</time>
      </trkpt>
      <trkpt lat="49.22122" lon="-1.47417">
        <ele>12.3</ele>
        <time>2021-12-04T13:39:59Z</time>
      </trkpt>
      <trkpt lat="49.22119" lon="-1.4741">
        <ele>12.1</ele>
        <time>2021-12-04T13:40:03Z</time>
      </trkpt>
      <trkpt lat="49.22116" lon="-1.47401">
        <ele>12</ele>
        <time>2021-12-04T13:40:07Z</time>
      </trkpt>
      <trkpt lat="49.22113" lon="-1.47392">
        <ele>11.9</ele>
        <time>2021-12-04T13:40:10Z</time>
      </trkpt>
      <trkpt lat="49.2211" lon="-1.47384">
        <ele>11.6</ele>
        <time>2021-12-04T13:40:15Z</time>
      </trkpt>
      <trkpt lat="49.22105" lon="-1.47377">
        <ele>11.5</ele>
        <time>2021-12-04T13:40:19Z</time>
      </trkpt>
      <trkpt lat="49.22103" lon="-1.47369">
        <ele>11.9</ele>
        <time>2021-12-04T13:40:24Z</time>
      </trkpt>
      <trkpt lat="49.22101" lon="-1.4736">
        <ele>12.2</ele>
        <time>2021-12-04T13:40:27Z</time>
      </trkpt>
      <trkpt lat="49.22101" lon="-1.47353">
        <ele>12.2</ele>
        <time>2021-12-04T13:40:32Z</time>
      </trkpt>
      <trkpt lat="49.22105" lon="-1.47349">
        <ele>12.3</ele>
        <time>2021-12-04T13:40:55Z</time>
      </trkpt>
      <trkpt lat="49.22101" lon="-1.47345">
        <ele>12.3</ele>
        <time>2021-12-04T13:41:06Z</time>
      </trkpt>
      <trkpt lat="49.22097" lon="-1.47342">
        <ele>12.1</ele>
        <time>2021-12-04T13:41:16Z</time>
      </trkpt>
      <trkpt lat="49.22092" lon="-1.47339">
        <ele>11.9</ele>
        <time>2021-12-04T13:41:20Z</time>
      </trkpt>
      <trkpt lat="49.22088" lon="-1.47334">
        <ele>11.9</ele>
        <time>2021-12-04T13:41:24Z</time>
      </trkpt>
      <trkpt lat="49.22086" lon="-1.47328">
        <ele>11.9</ele>
        <time>2021-12-04T13:41:26Z</time>
      </trkpt>
      <trkpt lat="49.22084" lon="-1.47321">
        <ele>11.9</ele>
        <time>2021-12-04T13:41:28Z</time>
      </trkpt>
      <trkpt lat="49.22082" lon="-1.47314">
        <ele>11.9</ele>
        <time>2021-12-04T13:41:32Z</time>
      </trkpt>
      <trkpt lat="49.2208" lon="-1.47306">
        <ele>11.7</ele>
        <time>2021-12-04T13:41:36Z</time>
      </trkpt>
      <trkpt lat="49.22079" lon="-1.47299">
        <ele>11.5</ele>
        <time>2021-12-04T13:41:39Z</time>
      </trkpt>
      <trkpt lat="49.22078" lon="-1.47292">
        <ele>11.2</ele>
        <time>2021-12-04T13:41:42Z</time>
      </trkpt>
      <trkpt lat="49.22075" lon="-1.47284">
        <ele>11.1</ele>
        <time>2021-12-04T13:41:45Z</time>
      </trkpt>
      <trkpt lat="49.22071" lon="-1.47277">
        <ele>10.9</ele>
        <time>2021-12-04T13:41:50Z</time>
      </trkpt>
      <trkpt lat="49.22069" lon="-1.47269">
        <ele>10.5</ele>
        <time>2021-12-04T13:41:54Z</time>
      </trkpt>
      <trkpt lat="49.22066" lon="-1.47264">
        <ele>10.2</ele>
        <time>2021-12-04T13:41:57Z</time>
      </trkpt>
      <trkpt lat="49.22064" lon="-1.47257">
        <ele>10</ele>
        <time>2021-12-04T13:42:01Z</time>
      </trkpt>
      <trkpt lat="49.22061" lon="-1.47251">
        <ele>9.7</ele>
        <time>2021-12-04T13:42:12Z</time>
      </trkpt>
      <trkpt lat="49.22059" lon="-1.47244">
        <ele>9.7</ele>
        <time>2021-12-04T13:42:15Z</time>
      </trkpt>
      <trkpt lat="49.22058" lon="-1.47236">
        <ele>9.7</ele>
        <time>2021-12-04T13:42:19Z</time>
      </trkpt>
      <trkpt lat="49.22059" lon="-1.47229">
        <ele>9.9</ele>
        <time>2021-12-04T13:42:22Z</time>
      </trkpt>
      <trkpt lat="49.2206" lon="-1.47222">
        <ele>10.2</ele>
        <time>2021-12-04T13:42:27Z</time>
      </trkpt>
      <trkpt lat="49.2206" lon="-1.47213">
        <ele>11</ele>
        <time>2021-12-04T13:42:34Z</time>
      </trkpt>
      <trkpt lat="49.22061" lon="-1.47206">
        <ele>11.6</ele>
        <time>2021-12-04T13:42:38Z</time>
      </trkpt>
      <trkpt lat="49.22062" lon="-1.47198">
        <ele>12.1</ele>
        <time>2021-12-04T13:42:42Z</time>
      </trkpt>
      <trkpt lat="49.22062" lon="-1.47191">
        <ele>12.3</ele>
        <time>2021-12-04T13:42:45Z</time>
      </trkpt>
      <trkpt lat="49.22061" lon="-1.47183">
        <ele>12.5</ele>
        <time>2021-12-04T13:42:49Z</time>
      </trkpt>
      <trkpt lat="49.2206" lon="-1.47175">
        <ele>12.5</ele>
        <time>2021-12-04T13:42:53Z</time>
      </trkpt>
      <trkpt lat="49.22057" lon="-1.47169">
        <ele>13</ele>
        <time>2021-12-04T13:43:02Z</time>
      </trkpt>
      <trkpt lat="49.22055" lon="-1.47161">
        <ele>13.2</ele>
        <time>2021-12-04T13:43:09Z</time>
      </trkpt>
      <trkpt lat="49.22053" lon="-1.47154">
        <ele>13.1</ele>
        <time>2021-12-04T13:43:13Z</time>
      </trkpt>
      <trkpt lat="49.22051" lon="-1.47147">
        <ele>12.8</ele>
        <time>2021-12-04T13:43:16Z</time>
      </trkpt>
      <trkpt lat="49.22049" lon="-1.47141">
        <ele>12.7</ele>
        <time>2021-12-04T13:43:19Z</time>
      </trkpt>
      <trkpt lat="49.22045" lon="-1.47133">
        <ele>12.7</ele>
        <time>2021-12-04T13:43:23Z</time>
      </trkpt>
      <trkpt lat="49.22041" lon="-1.47127">
        <ele>12.8</ele>
        <time>2021-12-04T13:43:26Z</time>
      </trkpt>
      <trkpt lat="49.22036" lon="-1.47123">
        <ele>13</ele>
        <time>2021-12-04T13:43:30Z</time>
      </trkpt>
      <trkpt lat="49.22033" lon="-1.47117">
        <ele>13.2</ele>
        <time>2021-12-04T13:43:39Z</time>
      </trkpt>
      <trkpt lat="49.2203" lon="-1.47111">
        <ele>13.1</ele>
        <time>2021-12-04T13:43:43Z</time>
      </trkpt>
      <trkpt lat="49.22024" lon="-1.47111">
        <ele>13.1</ele>
        <time>2021-12-04T13:43:46Z</time>
      </trkpt>
      <trkpt lat="49.2202" lon="-1.47108">
        <ele>13.1</ele>
        <time>2021-12-04T13:43:50Z</time>
      </trkpt>
      <trkpt lat="49.22016" lon="-1.47101">
        <ele>13.2</ele>
        <time>2021-12-04T13:43:53Z</time>
      </trkpt>
      <trkpt lat="49.22014" lon="-1.47094">
        <ele>13.1</ele>
        <time>2021-12-04T13:43:57Z</time>
      </trkpt>
      <trkpt lat="49.22015" lon="-1.47085">
        <ele>12.6</ele>
        <time>2021-12-04T13:44:01Z</time>
      </trkpt>
      <trkpt lat="49.22015" lon="-1.47078">
        <ele>11.6</ele>
        <time>2021-12-04T13:44:06Z</time>
      </trkpt>
      <trkpt lat="49.22013" lon="-1.47072">
        <ele>11.2</ele>
        <time>2021-12-04T13:44:10Z</time>
      </trkpt>
      <trkpt lat="49.22014" lon="-1.47064">
        <ele>10.9</ele>
        <time>2021-12-04T13:44:16Z</time>
      </trkpt>
      <trkpt lat="49.22016" lon="-1.47055">
        <ele>10.9</ele>
        <time>2021-12-04T13:44:23Z</time>
      </trkpt>
      <trkpt lat="49.22012" lon="-1.47059">
        <ele>11</ele>
        <time>2021-12-04T13:44:26Z</time>
      </trkpt>
      <trkpt lat="49.22015" lon="-1.47052">
        <ele>11.2</ele>
        <time>2021-12-04T13:44:35Z</time>
      </trkpt>
      <trkpt lat="49.22018" lon="-1.47044">
        <ele>11</ele>
        <time>2021-12-04T13:44:38Z</time>
      </trkpt>
      <trkpt lat="49.22018" lon="-1.47036">
        <ele>11.1</ele>
        <time>2021-12-04T13:44:42Z</time>
      </trkpt>
      <trkpt lat="49.22018" lon="-1.47028">
        <ele>11</ele>
        <time>2021-12-04T13:44:46Z</time>
      </trkpt>
      <trkpt lat="49.22022" lon="-1.47022">
        <ele>10.6</ele>
        <time>2021-12-04T13:44:57Z</time>
      </trkpt>
      <trkpt lat="49.22023" lon="-1.47015">
        <ele>10.7</ele>
        <time>2021-12-04T13:44:59Z</time>
      </trkpt>
      <trkpt lat="49.22023" lon="-1.47005">
        <ele>11</ele>
        <time>2021-12-04T13:45:03Z</time>
      </trkpt>
      <trkpt lat="49.22023" lon="-1.46997">
        <ele>11.1</ele>
        <time>2021-12-04T13:45:07Z</time>
      </trkpt>
      <trkpt lat="49.22023" lon="-1.46989">
        <ele>11.2</ele>
        <time>2021-12-04T13:45:10Z</time>
      </trkpt>
      <trkpt lat="49.22023" lon="-1.46981">
        <ele>11.3</ele>
        <time>2021-12-04T13:45:13Z</time>
      </trkpt>
      <trkpt lat="49.22024" lon="-1.46972">
        <ele>11.4</ele>
        <time>2021-12-04T13:45:18Z</time>
      </trkpt>
      <trkpt lat="49.22025" lon="-1.46964">
        <ele>11.4</ele>
        <time>2021-12-04T13:45:22Z</time>
      </trkpt>
      <trkpt lat="49.22027" lon="-1.46956">
        <ele>11.5</ele>
        <time>2021-12-04T13:45:26Z</time>
      </trkpt>
      <trkpt lat="49.2203" lon="-1.46949">
        <ele>11.6</ele>
        <time>2021-12-04T13:45:30Z</time>
      </trkpt>
      <trkpt lat="49.22035" lon="-1.46952">
        <ele>11.7</ele>
        <time>2021-12-04T13:45:34Z</time>
      </trkpt>
      <trkpt lat="49.2204" lon="-1.46947">
        <ele>11.8</ele>
        <time>2021-12-04T13:45:38Z</time>
      </trkpt>
      <trkpt lat="49.22043" lon="-1.46939">
        <ele>11.7</ele>
        <time>2021-12-04T13:45:42Z</time>
      </trkpt>
      <trkpt lat="49.22047" lon="-1.46934">
        <ele>11.6</ele>
        <time>2021-12-04T13:45:45Z</time>
      </trkpt>
      <trkpt lat="49.22053" lon="-1.46926">
        <ele>11.5</ele>
        <time>2021-12-04T13:45:48Z</time>
      </trkpt>
      <trkpt lat="49.22056" lon="-1.4692">
        <ele>11.5</ele>
        <time>2021-12-04T13:45:50Z</time>
      </trkpt>
      <trkpt lat="49.22059" lon="-1.46913">
        <ele>11.7</ele>
        <time>2021-12-04T13:45:53Z</time>
      </trkpt>
      <trkpt lat="49.22064" lon="-1.46907">
        <ele>11.9</ele>
        <time>2021-12-04T13:45:57Z</time>
      </trkpt>
      <trkpt lat="49.22069" lon="-1.46903">
        <ele>12.4</ele>
        <time>2021-12-04T13:46:01Z</time>
      </trkpt>
      <trkpt lat="49.22074" lon="-1.46901">
        <ele>12.7</ele>
        <time>2021-12-04T13:46:05Z</time>
      </trkpt>
      <trkpt lat="49.22078" lon="-1.46897">
        <ele>12.9</ele>
        <time>2021-12-04T13:46:09Z</time>
      </trkpt>
      <trkpt lat="49.22082" lon="-1.46894">
        <ele>13.1</ele>
        <time>2021-12-04T13:46:13Z</time>
      </trkpt>
      <trkpt lat="49.22087" lon="-1.4689">
        <ele>13.5</ele>
        <time>2021-12-04T13:46:17Z</time>
      </trkpt>
      <trkpt lat="49.22091" lon="-1.46885">
        <ele>13.9</ele>
        <time>2021-12-04T13:46:21Z</time>
      </trkpt>
      <trkpt lat="49.22096" lon="-1.4688">
        <ele>14.2</ele>
        <time>2021-12-04T13:46:26Z</time>
      </trkpt>
      <trkpt lat="49.221" lon="-1.46874">
        <ele>14.5</ele>
        <time>2021-12-04T13:46:33Z</time>
      </trkpt>
      <trkpt lat="49.22102" lon="-1.46867">
        <ele>14.9</ele>
        <time>2021-12-04T13:46:38Z</time>
      </trkpt>
      <trkpt lat="49.22095" lon="-1.46865">
        <ele>15.3</ele>
        <time>2021-12-04T13:46:43Z</time>
      </trkpt>
      <trkpt lat="49.2209" lon="-1.46864">
        <ele>15.2</ele>
        <time>2021-12-04T13:46:46Z</time>
      </trkpt>
      <trkpt lat="49.22086" lon="-1.46861">
        <ele>14.8</ele>
        <time>2021-12-04T13:46:49Z</time>
      </trkpt>
      <trkpt lat="49.22081" lon="-1.46858">
        <ele>14.4</ele>
        <time>2021-12-04T13:46:53Z</time>
      </trkpt>
      <trkpt lat="49.22077" lon="-1.46854">
        <ele>14.1</ele>
        <time>2021-12-04T13:46:57Z</time>
      </trkpt>
      <trkpt lat="49.22072" lon="-1.4685">
        <ele>13.9</ele>
        <time>2021-12-04T13:47:00Z</time>
      </trkpt>
      <trkpt lat="49.22068" lon="-1.46847">
        <ele>13.7</ele>
        <time>2021-12-04T13:47:03Z</time>
      </trkpt>
      <trkpt lat="49.22064" lon="-1.46843">
        <ele>13.6</ele>
        <time>2021-12-04T13:47:07Z</time>
      </trkpt>
      <trkpt lat="49.22059" lon="-1.46838">
        <ele>13.5</ele>
        <time>2021-12-04T13:47:10Z</time>
      </trkpt>
      <trkpt lat="49.22054" lon="-1.46834">
        <ele>13.3</ele>
        <time>2021-12-04T13:47:15Z</time>
      </trkpt>
      <trkpt lat="49.22049" lon="-1.4683">
        <ele>13.2</ele>
        <time>2021-12-04T13:47:19Z</time>
      </trkpt>
      <trkpt lat="49.22045" lon="-1.46827">
        <ele>13</ele>
        <time>2021-12-04T13:47:22Z</time>
      </trkpt>
      <trkpt lat="49.22042" lon="-1.46824">
        <ele>12.7</ele>
        <time>2021-12-04T13:47:26Z</time>
      </trkpt>
      <trkpt lat="49.22037" lon="-1.46819">
        <ele>12.6</ele>
        <time>2021-12-04T13:47:29Z</time>
      </trkpt>
      <trkpt lat="49.22034" lon="-1.46815">
        <ele>12.5</ele>
        <time>2021-12-04T13:47:33Z</time>
      </trkpt>
      <trkpt lat="49.22028" lon="-1.46811">
        <ele>12.5</ele>
        <time>2021-12-04T13:47:37Z</time>
      </trkpt>
      <trkpt lat="49.22022" lon="-1.46805">
        <ele>12.2</ele>
        <time>2021-12-04T13:47:42Z</time>
      </trkpt>
      <trkpt lat="49.22017" lon="-1.46801">
        <ele>11.5</ele>
        <time>2021-12-04T13:47:47Z</time>
      </trkpt>
      <trkpt lat="49.22013" lon="-1.46797">
        <ele>11.1</ele>
        <time>2021-12-04T13:47:50Z</time>
      </trkpt>
      <trkpt lat="49.22008" lon="-1.46791">
        <ele>10.7</ele>
        <time>2021-12-04T13:47:54Z</time>
      </trkpt>
      <trkpt lat="49.22005" lon="-1.46784">
        <ele>10.5</ele>
        <time>2021-12-04T13:47:58Z</time>
      </trkpt>
      <trkpt lat="49.22003" lon="-1.46777">
        <ele>10.2</ele>
        <time>2021-12-04T13:48:01Z</time>
      </trkpt>
      <trkpt lat="49.22002" lon="-1.46768">
        <ele>10</ele>
        <time>2021-12-04T13:48:06Z</time>
      </trkpt>
      <trkpt lat="49.22002" lon="-1.4676">
        <ele>9.9</ele>
        <time>2021-12-04T13:48:10Z</time>
      </trkpt>
      <trkpt lat="49.22002" lon="-1.46751">
        <ele>9.8</ele>
        <time>2021-12-04T13:48:15Z</time>
      </trkpt>
      <trkpt lat="49.21999" lon="-1.46745">
        <ele>10.1</ele>
        <time>2021-12-04T13:48:19Z</time>
      </trkpt>
      <trkpt lat="49.21996" lon="-1.4674">
        <ele>10.4</ele>
        <time>2021-12-04T13:48:25Z</time>
      </trkpt>
      <trkpt lat="49.21998" lon="-1.46747">
        <ele>11.3</ele>
        <time>2021-12-04T13:48:40Z</time>
      </trkpt>
      <trkpt lat="49.22001" lon="-1.46753">
        <ele>11.4</ele>
        <time>2021-12-04T13:48:43Z</time>
      </trkpt>
      <trkpt lat="49.22003" lon="-1.4676">
        <ele>11.5</ele>
        <time>2021-12-04T13:48:46Z</time>
      </trkpt>
      <trkpt lat="49.22005" lon="-1.46767">
        <ele>11.6</ele>
        <time>2021-12-04T13:48:49Z</time>
      </trkpt>
      <trkpt lat="49.22007" lon="-1.46775">
        <ele>11.6</ele>
        <time>2021-12-04T13:48:53Z</time>
      </trkpt>
      <trkpt lat="49.22008" lon="-1.46782">
        <ele>11.6</ele>
        <time>2021-12-04T13:48:56Z</time>
      </trkpt>
      <trkpt lat="49.22009" lon="-1.4679">
        <ele>11.7</ele>
        <time>2021-12-04T13:48:59Z</time>
      </trkpt>
      <trkpt lat="49.22013" lon="-1.46796">
        <ele>11.9</ele>
        <time>2021-12-04T13:49:04Z</time>
      </trkpt>
      <trkpt lat="49.22017" lon="-1.46801">
        <ele>12.3</ele>
        <time>2021-12-04T13:49:08Z</time>
      </trkpt>
      <trkpt lat="49.22021" lon="-1.46805">
        <ele>12.7</ele>
        <time>2021-12-04T13:49:12Z</time>
      </trkpt>
      <trkpt lat="49.22026" lon="-1.46809">
        <ele>13.4</ele>
        <time>2021-12-04T13:49:16Z</time>
      </trkpt>
      <trkpt lat="49.22031" lon="-1.46813">
        <ele>13.9</ele>
        <time>2021-12-04T13:49:21Z</time>
      </trkpt>
      <trkpt lat="49.22037" lon="-1.46817">
        <ele>14.2</ele>
        <time>2021-12-04T13:49:26Z</time>
      </trkpt>
      <trkpt lat="49.22041" lon="-1.46821">
        <ele>14.3</ele>
        <time>2021-12-04T13:49:30Z</time>
      </trkpt>
      <trkpt lat="49.22046" lon="-1.46826">
        <ele>14.4</ele>
        <time>2021-12-04T13:49:34Z</time>
      </trkpt>
      <trkpt lat="49.2205" lon="-1.4683">
        <ele>14.5</ele>
        <time>2021-12-04T13:49:38Z</time>
      </trkpt>
      <trkpt lat="49.22054" lon="-1.46834">
        <ele>14.7</ele>
        <time>2021-12-04T13:49:42Z</time>
      </trkpt>
      <trkpt lat="49.22059" lon="-1.46839">
        <ele>14.8</ele>
        <time>2021-12-04T13:49:46Z</time>
      </trkpt>
      <trkpt lat="49.22065" lon="-1.46843">
        <ele>14.9</ele>
        <time>2021-12-04T13:49:52Z</time>
      </trkpt>
      <trkpt lat="49.2207" lon="-1.46848">
        <ele>15.1</ele>
        <time>2021-12-04T13:49:56Z</time>
      </trkpt>
      <trkpt lat="49.22074" lon="-1.46851">
        <ele>15.2</ele>
        <time>2021-12-04T13:50:00Z</time>
      </trkpt>
      <trkpt lat="49.2208" lon="-1.46855">
        <ele>15.3</ele>
        <time>2021-12-04T13:50:05Z</time>
      </trkpt>
      <trkpt lat="49.22084" lon="-1.46858">
        <ele>15.4</ele>
        <time>2021-12-04T13:50:08Z</time>
      </trkpt>
      <trkpt lat="49.22088" lon="-1.46861">
        <ele>15.5</ele>
        <time>2021-12-04T13:50:11Z</time>
      </trkpt>
      <trkpt lat="49.22092" lon="-1.46864">
        <ele>15.7</ele>
        <time>2021-12-04T13:50:14Z</time>
      </trkpt>
      <trkpt lat="49.22097" lon="-1.46867">
        <ele>15.9</ele>
        <time>2021-12-04T13:50:19Z</time>
      </trkpt>
      <trkpt lat="49.22102" lon="-1.46869">
        <ele>16.3</ele>
        <time>2021-12-04T13:50:22Z</time>
      </trkpt>
      <trkpt lat="49.22107" lon="-1.46869">
        <ele>16.8</ele>
        <time>2021-12-04T13:50:26Z</time>
      </trkpt>
      <trkpt lat="49.22111" lon="-1.46863">
        <ele>17.3</ele>
        <time>2021-12-04T13:50:30Z</time>
      </trkpt>
      <trkpt lat="49.22116" lon="-1.46858">
        <ele>17.8</ele>
        <time>2021-12-04T13:50:34Z</time>
      </trkpt>
      <trkpt lat="49.22122" lon="-1.46854">
        <ele>18.3</ele>
        <time>2021-12-04T13:50:38Z</time>
      </trkpt>
      <trkpt lat="49.22126" lon="-1.4685">
        <ele>18.7</ele>
        <time>2021-12-04T13:50:42Z</time>
      </trkpt>
      <trkpt lat="49.2213" lon="-1.46842">
        <ele>19</ele>
        <time>2021-12-04T13:50:47Z</time>
      </trkpt>
      <trkpt lat="49.22133" lon="-1.46836">
        <ele>19.4</ele>
        <time>2021-12-04T13:50:50Z</time>
      </trkpt>
      <trkpt lat="49.22136" lon="-1.46828">
        <ele>19.7</ele>
        <time>2021-12-04T13:50:54Z</time>
      </trkpt>
      <trkpt lat="49.22139" lon="-1.46822">
        <ele>20</ele>
        <time>2021-12-04T13:50:58Z</time>
      </trkpt>
      <trkpt lat="49.22142" lon="-1.46816">
        <ele>20.3</ele>
        <time>2021-12-04T13:51:01Z</time>
      </trkpt>
      <trkpt lat="49.22144" lon="-1.46809">
        <ele>20.6</ele>
        <time>2021-12-04T13:51:05Z</time>
      </trkpt>
      <trkpt lat="49.22147" lon="-1.46803">
        <ele>20.7</ele>
        <time>2021-12-04T13:51:08Z</time>
      </trkpt>
      <trkpt lat="49.2215" lon="-1.46796">
        <ele>20.8</ele>
        <time>2021-12-04T13:51:13Z</time>
      </trkpt>
      <trkpt lat="49.22152" lon="-1.46789">
        <ele>20.9</ele>
        <time>2021-12-04T13:51:16Z</time>
      </trkpt>
      <trkpt lat="49.22155" lon="-1.46782">
        <ele>21</ele>
        <time>2021-12-04T13:51:20Z</time>
      </trkpt>
      <trkpt lat="49.22158" lon="-1.46775">
        <ele>21.1</ele>
        <time>2021-12-04T13:51:24Z</time>
      </trkpt>
      <trkpt lat="49.22161" lon="-1.46769">
        <ele>21.2</ele>
        <time>2021-12-04T13:51:28Z</time>
      </trkpt>
      <trkpt lat="49.22164" lon="-1.46762">
        <ele>21.2</ele>
        <time>2021-12-04T13:51:32Z</time>
      </trkpt>
      <trkpt lat="49.22167" lon="-1.46756">
        <ele>21.1</ele>
        <time>2021-12-04T13:51:36Z</time>
      </trkpt>
      <trkpt lat="49.2217" lon="-1.46749">
        <ele>21.1</ele>
        <time>2021-12-04T13:51:40Z</time>
      </trkpt>
      <trkpt lat="49.22173" lon="-1.46743">
        <ele>21.3</ele>
        <time>2021-12-04T13:51:43Z</time>
      </trkpt>
      <trkpt lat="49.22176" lon="-1.46737">
        <ele>21.4</ele>
        <time>2021-12-04T13:51:47Z</time>
      </trkpt>
      <trkpt lat="49.22179" lon="-1.4673">
        <ele>21.5</ele>
        <time>2021-12-04T13:51:51Z</time>
      </trkpt>
      <trkpt lat="49.22182" lon="-1.46723">
        <ele>21.4</ele>
        <time>2021-12-04T13:51:55Z</time>
      </trkpt>
      <trkpt lat="49.22184" lon="-1.46717">
        <ele>21.4</ele>
        <time>2021-12-04T13:51:58Z</time>
      </trkpt>
      <trkpt lat="49.22187" lon="-1.4671">
        <ele>21.4</ele>
        <time>2021-12-04T13:52:02Z</time>
      </trkpt>
      <trkpt lat="49.2219" lon="-1.46703">
        <ele>21.5</ele>
        <time>2021-12-04T13:52:06Z</time>
      </trkpt>
      <trkpt lat="49.22193" lon="-1.46696">
        <ele>21.7</ele>
        <time>2021-12-04T13:52:09Z</time>
      </trkpt>
      <trkpt lat="49.22196" lon="-1.46689">
        <ele>21.8</ele>
        <time>2021-12-04T13:52:13Z</time>
      </trkpt>
      <trkpt lat="49.222" lon="-1.46681">
        <ele>21.9</ele>
        <time>2021-12-04T13:52:18Z</time>
      </trkpt>
      <trkpt lat="49.22202" lon="-1.46673">
        <ele>21.9</ele>
        <time>2021-12-04T13:52:22Z</time>
      </trkpt>
      <trkpt lat="49.22206" lon="-1.46667">
        <ele>21.8</ele>
        <time>2021-12-04T13:52:25Z</time>
      </trkpt>
      <trkpt lat="49.22209" lon="-1.46661">
        <ele>21.8</ele>
        <time>2021-12-04T13:52:29Z</time>
      </trkpt>
      <trkpt lat="49.22212" lon="-1.46655">
        <ele>21.8</ele>
        <time>2021-12-04T13:52:33Z</time>
      </trkpt>
      <trkpt lat="49.22215" lon="-1.46647">
        <ele>21.8</ele>
        <time>2021-12-04T13:52:36Z</time>
      </trkpt>
      <trkpt lat="49.22218" lon="-1.46641">
        <ele>21.7</ele>
        <time>2021-12-04T13:52:40Z</time>
      </trkpt>
      <trkpt lat="49.22221" lon="-1.46634">
        <ele>21.7</ele>
        <time>2021-12-04T13:52:50Z</time>
      </trkpt>
      <trkpt lat="49.22224" lon="-1.46626">
        <ele>21.6</ele>
        <time>2021-12-04T13:52:54Z</time>
      </trkpt>
      <trkpt lat="49.22227" lon="-1.46619">
        <ele>21.5</ele>
        <time>2021-12-04T13:52:57Z</time>
      </trkpt>
      <trkpt lat="49.2223" lon="-1.46613">
        <ele>21.4</ele>
        <time>2021-12-04T13:53:00Z</time>
      </trkpt>
      <trkpt lat="49.22232" lon="-1.46606">
        <ele>21.5</ele>
        <time>2021-12-04T13:53:04Z</time>
      </trkpt>
      <trkpt lat="49.22235" lon="-1.466">
        <ele>21.5</ele>
        <time>2021-12-04T13:53:07Z</time>
      </trkpt>
      <trkpt lat="49.22238" lon="-1.46594">
        <ele>21.5</ele>
        <time>2021-12-04T13:53:10Z</time>
      </trkpt>
      <trkpt lat="49.22241" lon="-1.46587">
        <ele>21.4</ele>
        <time>2021-12-04T13:53:15Z</time>
      </trkpt>
      <trkpt lat="49.22244" lon="-1.46581">
        <ele>21.4</ele>
        <time>2021-12-04T13:53:18Z</time>
      </trkpt>
      <trkpt lat="49.22248" lon="-1.46573">
        <ele>20.8</ele>
        <time>2021-12-04T13:53:36Z</time>
      </trkpt>
      <trkpt lat="49.2225" lon="-1.46564">
        <ele>21.1</ele>
        <time>2021-12-04T13:53:40Z</time>
      </trkpt>
      <trkpt lat="49.22253" lon="-1.46558">
        <ele>22</ele>
        <time>2021-12-04T13:53:43Z</time>
      </trkpt>
      <trkpt lat="49.22257" lon="-1.46551">
        <ele>23.6</ele>
        <time>2021-12-04T13:53:46Z</time>
      </trkpt>
      <trkpt lat="49.2226" lon="-1.46544">
        <ele>24.8</ele>
        <time>2021-12-04T13:53:50Z</time>
      </trkpt>
      <trkpt lat="49.22263" lon="-1.46538">
        <ele>25</ele>
        <time>2021-12-04T13:53:53Z</time>
      </trkpt>
      <trkpt lat="49.22266" lon="-1.46533">
        <ele>24.8</ele>
        <time>2021-12-04T13:53:57Z</time>
      </trkpt>
      <trkpt lat="49.22269" lon="-1.46526">
        <ele>24.7</ele>
        <time>2021-12-04T13:54:00Z</time>
      </trkpt>
      <trkpt lat="49.22273" lon="-1.4652">
        <ele>24.6</ele>
        <time>2021-12-04T13:54:04Z</time>
      </trkpt>
      <trkpt lat="49.22275" lon="-1.46514">
        <ele>24.5</ele>
        <time>2021-12-04T13:54:08Z</time>
      </trkpt>
      <trkpt lat="49.22279" lon="-1.46507">
        <ele>24.5</ele>
        <time>2021-12-04T13:54:11Z</time>
      </trkpt>
      <trkpt lat="49.22281" lon="-1.46501">
        <ele>24.5</ele>
        <time>2021-12-04T13:54:15Z</time>
      </trkpt>
      <trkpt lat="49.22285" lon="-1.46495">
        <ele>24.7</ele>
        <time>2021-12-04T13:54:24Z</time>
      </trkpt>
      <trkpt lat="49.22286" lon="-1.46489">
        <ele>24.7</ele>
        <time>2021-12-04T13:54:26Z</time>
      </trkpt>
      <trkpt lat="49.22288" lon="-1.46481">
        <ele>24.6</ele>
        <time>2021-12-04T13:54:29Z</time>
      </trkpt>
      <trkpt lat="49.22291" lon="-1.46475">
        <ele>24.8</ele>
        <time>2021-12-04T13:54:33Z</time>
      </trkpt>
      <trkpt lat="49.22294" lon="-1.46468">
        <ele>25.1</ele>
        <time>2021-12-04T13:54:37Z</time>
      </trkpt>
      <trkpt lat="49.22297" lon="-1.46461">
        <ele>25.2</ele>
        <time>2021-12-04T13:54:40Z</time>
      </trkpt>
      <trkpt lat="49.22299" lon="-1.46456">
        <ele>25.1</ele>
        <time>2021-12-04T13:54:43Z</time>
      </trkpt>
      <trkpt lat="49.22301" lon="-1.46449">
        <ele>25</ele>
        <time>2021-12-04T13:54:47Z</time>
      </trkpt>
      <trkpt lat="49.22304" lon="-1.46442">
        <ele>24.7</ele>
        <time>2021-12-04T13:54:52Z</time>
      </trkpt>
      <trkpt lat="49.22309" lon="-1.46437">
        <ele>24.5</ele>
        <time>2021-12-04T13:54:56Z</time>
      </trkpt>
      <trkpt lat="49.22314" lon="-1.46431">
        <ele>24.5</ele>
        <time>2021-12-04T13:55:00Z</time>
      </trkpt>
      <trkpt lat="49.22316" lon="-1.46422">
        <ele>24.4</ele>
        <time>2021-12-04T13:55:05Z</time>
      </trkpt>
      <trkpt lat="49.22319" lon="-1.46414">
        <ele>24.5</ele>
        <time>2021-12-04T13:55:09Z</time>
      </trkpt>
      <trkpt lat="49.22322" lon="-1.46408">
        <ele>24.5</ele>
        <time>2021-12-04T13:55:12Z</time>
      </trkpt>
      <trkpt lat="49.22325" lon="-1.464">
        <ele>24.6</ele>
        <time>2021-12-04T13:55:17Z</time>
      </trkpt>
      <trkpt lat="49.22328" lon="-1.46394">
        <ele>24.7</ele>
        <time>2021-12-04T13:55:20Z</time>
      </trkpt>
      <trkpt lat="49.22331" lon="-1.46388">
        <ele>24.8</ele>
        <time>2021-12-04T13:55:24Z</time>
      </trkpt>
      <trkpt lat="49.22335" lon="-1.46381">
        <ele>25</ele>
        <time>2021-12-04T13:55:28Z</time>
      </trkpt>
      <trkpt lat="49.22339" lon="-1.46376">
        <ele>24.4</ele>
        <time>2021-12-04T13:55:45Z</time>
      </trkpt>
      <trkpt lat="49.22344" lon="-1.46364">
        <ele>24.4</ele>
        <time>2021-12-04T13:55:47Z</time>
      </trkpt>
      <trkpt lat="49.22339" lon="-1.4637">
        <ele>23.8</ele>
        <time>2021-12-04T13:55:54Z</time>
      </trkpt>
      <trkpt lat="49.22336" lon="-1.46381">
        <ele>23.5</ele>
        <time>2021-12-04T13:55:57Z</time>
      </trkpt>
      <trkpt lat="49.22335" lon="-1.46387">
        <ele>23.3</ele>
        <time>2021-12-04T13:55:58Z</time>
      </trkpt>
      <trkpt lat="49.22331" lon="-1.46381">
        <ele>23.3</ele>
        <time>2021-12-04T13:56:12Z</time>
      </trkpt>
      <trkpt lat="49.22332" lon="-1.46373">
        <ele>23.3</ele>
        <time>2021-12-04T13:56:15Z</time>
      </trkpt>
      <trkpt lat="49.22337" lon="-1.46368">
        <ele>23.2</ele>
        <time>2021-12-04T13:56:23Z</time>
      </trkpt>
      <trkpt lat="49.22335" lon="-1.46377">
        <ele>22.9</ele>
        <time>2021-12-04T13:56:29Z</time>
      </trkpt>
      <trkpt lat="49.22332" lon="-1.46385">
        <ele>22.9</ele>
        <time>2021-12-04T13:56:31Z</time>
      </trkpt>
      <trkpt lat="49.22329" lon="-1.46391">
        <ele>22.9</ele>
        <time>2021-12-04T13:56:32Z</time>
      </trkpt>
      <trkpt lat="49.22325" lon="-1.46403">
        <ele>22.9</ele>
        <time>2021-12-04T13:56:34Z</time>
      </trkpt>
      <trkpt lat="49.22323" lon="-1.46409">
        <ele>23.1</ele>
        <time>2021-12-04T13:56:37Z</time>
      </trkpt>
      <trkpt lat="49.22323" lon="-1.46402">
        <ele>22.4</ele>
        <time>2021-12-04T13:56:45Z</time>
      </trkpt>
      <trkpt lat="49.22327" lon="-1.46396">
        <ele>22.3</ele>
        <time>2021-12-04T13:56:47Z</time>
      </trkpt>
      <trkpt lat="49.22332" lon="-1.46387">
        <ele>21.9</ele>
        <time>2021-12-04T13:56:49Z</time>
      </trkpt>
      <trkpt lat="49.22335" lon="-1.4638">
        <ele>21.6</ele>
        <time>2021-12-04T13:56:52Z</time>
      </trkpt>
      <trkpt lat="49.22339" lon="-1.46373">
        <ele>21</ele>
        <time>2021-12-04T13:56:59Z</time>
      </trkpt>
      <trkpt lat="49.22341" lon="-1.46366">
        <ele>21.1</ele>
        <time>2021-12-04T13:57:02Z</time>
      </trkpt>
      <trkpt lat="49.22344" lon="-1.46361">
        <ele>21.3</ele>
        <time>2021-12-04T13:57:06Z</time>
      </trkpt>
      <trkpt lat="49.22348" lon="-1.46354">
        <ele>21.6</ele>
        <time>2021-12-04T13:57:09Z</time>
      </trkpt>
      <trkpt lat="49.22349" lon="-1.46347">
        <ele>21.8</ele>
        <time>2021-12-04T13:57:12Z</time>
      </trkpt>
      <trkpt lat="49.22352" lon="-1.4634">
        <ele>22</ele>
        <time>2021-12-04T13:57:16Z</time>
      </trkpt>
      <trkpt lat="49.22355" lon="-1.46331">
        <ele>22.2</ele>
        <time>2021-12-04T13:57:21Z</time>
      </trkpt>
      <trkpt lat="49.22359" lon="-1.46324">
        <ele>22.3</ele>
        <time>2021-12-04T13:57:25Z</time>
      </trkpt>
      <trkpt lat="49.22363" lon="-1.4632">
        <ele>22.5</ele>
        <time>2021-12-04T13:57:30Z</time>
      </trkpt>
      <trkpt lat="49.22365" lon="-1.46313">
        <ele>22.6</ele>
        <time>2021-12-04T13:57:33Z</time>
      </trkpt>
      <trkpt lat="49.22367" lon="-1.46305">
        <ele>22.7</ele>
        <time>2021-12-04T13:57:38Z</time>
      </trkpt>
      <trkpt lat="49.22369" lon="-1.46298">
        <ele>22.6</ele>
        <time>2021-12-04T13:57:42Z</time>
      </trkpt>
      <trkpt lat="49.22373" lon="-1.46291">
        <ele>22.5</ele>
        <time>2021-12-04T13:57:48Z</time>
      </trkpt>
      <trkpt lat="49.22374" lon="-1.46283">
        <ele>22.5</ele>
        <time>2021-12-04T13:57:52Z</time>
      </trkpt>
      <trkpt lat="49.22375" lon="-1.46276">
        <ele>22.4</ele>
        <time>2021-12-04T13:57:55Z</time>
      </trkpt>
      <trkpt lat="49.22378" lon="-1.46269">
        <ele>22.5</ele>
        <time>2021-12-04T13:57:59Z</time>
      </trkpt>
      <trkpt lat="49.2238" lon="-1.4626">
        <ele>22.6</ele>
        <time>2021-12-04T13:58:03Z</time>
      </trkpt>
      <trkpt lat="49.22381" lon="-1.46252">
        <ele>22.6</ele>
        <time>2021-12-04T13:58:06Z</time>
      </trkpt>
      <trkpt lat="49.22382" lon="-1.46243">
        <ele>22.6</ele>
        <time>2021-12-04T13:58:10Z</time>
      </trkpt>
      <trkpt lat="49.22382" lon="-1.46235">
        <ele>22.8</ele>
        <time>2021-12-04T13:58:14Z</time>
      </trkpt>
      <trkpt lat="49.22381" lon="-1.46225">
        <ele>23</ele>
        <time>2021-12-04T13:58:18Z</time>
      </trkpt>
      <trkpt lat="49.2238" lon="-1.46217">
        <ele>23.1</ele>
        <time>2021-12-04T13:58:20Z</time>
      </trkpt>
      <trkpt lat="49.2238" lon="-1.46208">
        <ele>23.2</ele>
        <time>2021-12-04T13:58:23Z</time>
      </trkpt>
      <trkpt lat="49.2238" lon="-1.46197">
        <ele>23.3</ele>
        <time>2021-12-04T13:58:27Z</time>
      </trkpt>
      <trkpt lat="49.2238" lon="-1.46186">
        <ele>23.4</ele>
        <time>2021-12-04T13:58:31Z</time>
      </trkpt>
      <trkpt lat="49.22381" lon="-1.46178">
        <ele>23.4</ele>
        <time>2021-12-04T13:58:34Z</time>
      </trkpt>
      <trkpt lat="49.22381" lon="-1.46169">
        <ele>23.3</ele>
        <time>2021-12-04T13:58:37Z</time>
      </trkpt>
      <trkpt lat="49.22382" lon="-1.46159">
        <ele>23.1</ele>
        <time>2021-12-04T13:58:41Z</time>
      </trkpt>
      <trkpt lat="49.22383" lon="-1.4615">
        <ele>22.9</ele>
        <time>2021-12-04T13:58:44Z</time>
      </trkpt>
    </trkseg>
  </trk>
</gpx>